PWSweather.com
Personal Weather Stations
Station Observations
SONYA
Sergiev PosadRU

Sergiev PosadRU

Lat: 56.28148651, Lon: 38.05462646

Elevation: 741

Station Type: Fine offset WH1091

High Low Average
Temperature 54.3°F12.4°C 46.6°F8.1°C 50.5°F10.3°C
Dew Point 53.7°F12.1°C 46.2°F7.9°C 49.8°F9.9°C
Winds 6.9 mph 11.1 kmh Calm Calm 2.0 mph E3.2 kmh E
Wind Gusts 12.1 mph19.5 kmh -- 5.0 mph8.0 kmh
Humidity 99% 91% 97%
Pressure 29.51 in999.3 mb 29.20 in988.8 mb -
Precipitation 0.25 in6.4 mm - -
Hour Temp Dew Point Humidity Winds Wind Gusts Pressure Precip Precip Rate Daily Precip Total
12:02 AM 46.8°F8.2°C 46.2°F7.9°C 97% 3.8 mph E6.1 kmh E 6.0 mph9.7 kmh 29.51 in999.3 mb 0.01 in0.3 mm 0.36 in9.1 mm 0.05 in1.3 mm
12:03 AM 46.8°F8.2°C 46.2°F7.9°C 97% 1.6 mph 2.6 kmh 3.1 mph5.0 kmh 29.50 in999.0 mb 0.01 in0.3 mm 0.00 in0.0 mm 0.05 in1.3 mm
12:08 AM 46.8°F8.2°C 46.2°F7.9°C 97% 2.2 mph S3.5 kmh S 6.9 mph11.1 kmh 29.51 in999.3 mb 0.01 in0.3 mm 0.00 in0.0 mm 0.05 in1.3 mm
12:13 AM 46.8°F8.2°C 46.2°F7.9°C 97% 2.2 mph 3.5 kmh 3.8 mph6.1 kmh 29.51 in999.3 mb 0.01 in0.3 mm 0.00 in0.0 mm 0.05 in1.3 mm
12:17 AM 46.8°F8.2°C 46.2°F7.9°C 97% 1.6 mph E2.6 kmh E 4.5 mph7.2 kmh 29.50 in999.0 mb 0.01 in0.3 mm 0.00 in0.0 mm 0.05 in1.3 mm
12:18 AM 46.8°F8.2°C 46.2°F7.9°C 97% 2.2 mph E3.5 kmh E 5.4 mph8.7 kmh 29.51 in999.3 mb 0.01 in0.3 mm 0.00 in0.0 mm 0.05 in1.3 mm
12:22 AM 46.8°F8.2°C 46.2°F7.9°C 97% 0.7 mph NE1.1 kmh NE 3.1 mph5.0 kmh 29.50 in999.0 mb 0.01 in0.3 mm 0.00 in0.0 mm 0.05 in1.3 mm
12:23 AM 46.8°F8.2°C 46.2°F7.9°C 97% 1.6 mph NE2.6 kmh NE 3.1 mph5.0 kmh 29.51 in999.3 mb 0.01 in0.3 mm 0.00 in0.0 mm 0.05 in1.3 mm
12:28 AM 46.8°F8.2°C 46.2°F7.9°C 97% 0.7 mph SE1.1 kmh SE 2.2 mph3.5 kmh 29.50 in999.0 mb 0.01 in0.3 mm 0.00 in0.0 mm 0.05 in1.3 mm
12:33 AM 46.8°F8.2°C 46.2°F7.9°C 97% 1.6 mph SE2.6 kmh SE 3.1 mph5.0 kmh 29.51 in999.3 mb 0.01 in0.3 mm 0.00 in0.0 mm 0.05 in1.3 mm
12:37 AM 46.8°F8.2°C 46.2°F7.9°C 97% 3.1 mph NE5.0 kmh NE 3.8 mph6.1 kmh 29.50 in999.0 mb 0.01 in0.3 mm 0.00 in0.0 mm 0.05 in1.3 mm
12:38 AM 46.8°F8.2°C 46.2°F7.9°C 97% 3.8 mph 6.1 kmh 4.5 mph7.2 kmh 29.50 in999.0 mb 0.01 in0.3 mm 0.00 in0.0 mm 0.05 in1.3 mm
12:42 AM 46.8°F8.2°C 46.2°F7.9°C 97% 1.6 mph 2.6 kmh 3.8 mph6.1 kmh 29.50 in999.0 mb 0.01 in0.3 mm 0.00 in0.0 mm 0.05 in1.3 mm
12:43 AM 46.8°F8.2°C 46.2°F7.9°C 97% 3.1 mph 5.0 kmh 4.5 mph7.2 kmh 29.50 in999.0 mb 0.01 in0.3 mm 0.00 in0.0 mm 0.05 in1.3 mm
12:48 AM 46.8°F8.2°C 46.2°F7.9°C 97% 3.1 mph NE5.0 kmh NE 4.5 mph7.2 kmh 29.50 in999.0 mb 0.00 in0.0 mm 0.00 in0.0 mm 0.05 in1.3 mm
12:53 AM 46.8°F8.2°C 46.2°F7.9°C 97% 1.6 mph 2.6 kmh 3.1 mph5.0 kmh 29.50 in999.0 mb 0.00 in0.0 mm 0.00 in0.0 mm 0.05 in1.3 mm
12:57 AM 46.8°F8.2°C 46.2°F7.9°C 97% 2.2 mph 3.5 kmh 3.1 mph5.0 kmh 29.49 in998.6 mb 0.00 in0.0 mm 0.00 in0.0 mm 0.05 in1.3 mm
12:58 AM 46.8°F8.2°C 46.2°F7.9°C 97% 2.2 mph NE3.5 kmh NE 4.5 mph7.2 kmh 29.50 in999.0 mb 0.00 in0.0 mm 0.00 in0.0 mm 0.05 in1.3 mm
01:02 AM 46.8°F8.2°C 46.2°F7.9°C 97% 1.6 mph 2.6 kmh 3.8 mph6.1 kmh 29.50 in999.0 mb 0.00 in0.0 mm 0.00 in0.0 mm 0.05 in1.3 mm
01:03 AM 46.8°F8.2°C 46.2°F7.9°C 97% Calm Calm 1.6 mph2.6 kmh 29.49 in998.6 mb 0.00 in0.0 mm 0.00 in0.0 mm 0.05 in1.3 mm
01:08 AM 46.8°F8.2°C 46.2°F7.9°C 97% Calm Calm 1.6 mph2.6 kmh 29.49 in998.6 mb 0.00 in0.0 mm 0.00 in0.0 mm 0.05 in1.3 mm
01:13 AM 46.8°F8.2°C 46.2°F7.9°C 97% 1.6 mph S2.6 kmh S 3.8 mph6.1 kmh 29.49 in998.6 mb 0.00 in0.0 mm 0.00 in0.0 mm 0.05 in1.3 mm
01:17 AM 46.8°F8.2°C 46.2°F7.9°C 97% 1.6 mph 2.6 kmh 2.2 mph3.5 kmh 29.50 in999.0 mb 0.00 in0.0 mm 0.00 in0.0 mm 0.05 in1.3 mm
01:18 AM 46.8°F8.2°C 46.2°F7.9°C 97% 1.6 mph NE2.6 kmh NE 3.8 mph6.1 kmh 29.50 in999.0 mb 0.00 in0.0 mm 0.00 in0.0 mm 0.05 in1.3 mm
01:22 AM 46.8°F8.2°C 46.2°F7.9°C 97% 0.7 mph NE1.1 kmh NE 3.1 mph5.0 kmh 29.50 in999.0 mb 0.00 in0.0 mm 0.00 in0.0 mm 0.05 in1.3 mm
01:23 AM 46.8°F8.2°C 46.2°F7.9°C 97% 1.6 mph W2.6 kmh W 3.8 mph6.1 kmh 29.49 in998.6 mb 0.00 in0.0 mm 0.00 in0.0 mm 0.05 in1.3 mm
01:28 AM 46.8°F8.2°C 46.2°F7.9°C 97% 2.2 mph S3.5 kmh S 4.5 mph7.2 kmh 29.49 in998.6 mb 0.00 in0.0 mm 0.00 in0.0 mm 0.05 in1.3 mm
01:33 AM 46.8°F8.2°C 46.2°F7.9°C 97% 0.7 mph E1.1 kmh E 2.2 mph3.5 kmh 29.49 in998.6 mb 0.00 in0.0 mm 0.00 in0.0 mm 0.05 in1.3 mm
01:37 AM 46.8°F8.2°C 46.2°F7.9°C 97% 0.7 mph NE1.1 kmh NE 1.6 mph2.6 kmh 29.49 in998.6 mb 0.00 in0.0 mm 0.00 in0.0 mm 0.05 in1.3 mm
01:38 AM 46.8°F8.2°C 46.2°F7.9°C 97% Calm Calm 1.6 mph2.6 kmh 29.49 in998.6 mb 0.00 in0.0 mm 0.00 in0.0 mm 0.05 in1.3 mm
01:42 AM 46.8°F8.2°C 46.2°F7.9°C 97% 0.7 mph SW1.1 kmh SW 3.1 mph5.0 kmh 29.49 in998.6 mb 0.00 in0.0 mm 0.00 in0.0 mm 0.05 in1.3 mm
01:43 AM 46.8°F8.2°C 46.2°F7.9°C 97% 0.7 mph E1.1 kmh E 2.2 mph3.5 kmh 29.49 in998.6 mb 0.00 in0.0 mm 0.00 in0.0 mm 0.05 in1.3 mm
01:48 AM 46.8°F8.2°C 46.2°F7.9°C 97% 1.6 mph S2.6 kmh S 3.1 mph5.0 kmh 29.49 in998.6 mb 0.00 in0.0 mm 0.00 in0.0 mm 0.05 in1.3 mm
01:53 AM 46.8°F8.2°C 46.2°F7.9°C 97% 1.6 mph S2.6 kmh S 3.8 mph6.1 kmh 29.48 in998.3 mb 0.00 in0.0 mm 0.00 in0.0 mm 0.05 in1.3 mm
01:57 AM 46.8°F8.2°C 46.2°F7.9°C 97% 3.1 mph NE5.0 kmh NE 4.5 mph7.2 kmh 29.49 in998.6 mb 0.00 in0.0 mm 0.00 in0.0 mm 0.05 in1.3 mm
01:58 AM 46.8°F8.2°C 46.2°F7.9°C 97% Calm Calm 2.2 mph3.5 kmh 29.49 in998.6 mb 0.00 in0.0 mm 0.00 in0.0 mm 0.05 in1.3 mm
02:02 AM 46.8°F8.2°C 46.2°F7.9°C 97% 0.7 mph SE1.1 kmh SE 3.1 mph5.0 kmh 29.48 in998.3 mb 0.00 in0.0 mm 0.00 in0.0 mm 0.05 in1.3 mm
02:03 AM 46.8°F8.2°C 46.2°F7.9°C 97% 0.7 mph E1.1 kmh E 3.1 mph5.0 kmh 29.49 in998.6 mb 0.00 in0.0 mm 0.00 in0.0 mm 0.05 in1.3 mm
02:08 AM 46.8°F8.2°C 46.2°F7.9°C 97% 0.7 mph 1.1 kmh 1.6 mph2.6 kmh 29.48 in998.3 mb 0.00 in0.0 mm 0.00 in0.0 mm 0.05 in1.3 mm
02:13 AM 46.8°F8.2°C 46.4°F8.0°C 98% 2.2 mph SE3.5 kmh SE 3.1 mph5.0 kmh 29.47 in998.0 mb 0.00 in0.0 mm 0.00 in0.0 mm 0.05 in1.3 mm
02:17 AM 46.8°F8.2°C 46.4°F8.0°C 98% 2.2 mph NE3.5 kmh NE 4.5 mph7.2 kmh 29.47 in998.0 mb 0.00 in0.0 mm 0.00 in0.0 mm 0.05 in1.3 mm
02:18 AM 46.8°F8.2°C 46.4°F8.0°C 98% 1.6 mph 2.6 kmh 2.2 mph3.5 kmh 29.47 in998.0 mb 0.00 in0.0 mm 0.00 in0.0 mm 0.05 in1.3 mm
02:22 AM 46.8°F8.2°C 46.4°F8.0°C 98% 1.6 mph 2.6 kmh 3.1 mph5.0 kmh 29.47 in998.0 mb 0.00 in0.0 mm 0.00 in0.0 mm 0.05 in1.3 mm
02:23 AM 46.8°F8.2°C 46.4°F8.0°C 98% 2.2 mph E3.5 kmh E 3.1 mph5.0 kmh 29.47 in998.0 mb 0.00 in0.0 mm 0.00 in0.0 mm 0.05 in1.3 mm
02:28 AM 46.8°F8.2°C 46.4°F8.0°C 98% 0.7 mph 1.1 kmh 2.2 mph3.5 kmh 29.47 in998.0 mb 0.00 in0.0 mm 0.00 in0.0 mm 0.05 in1.3 mm
02:33 AM 46.8°F8.2°C 46.4°F8.0°C 98% 1.6 mph NE2.6 kmh NE 2.2 mph3.5 kmh 29.47 in998.0 mb 0.00 in0.0 mm 0.00 in0.0 mm 0.05 in1.3 mm
02:37 AM 46.8°F8.2°C 46.4°F8.0°C 98% 1.6 mph NE2.6 kmh NE 3.8 mph6.1 kmh 29.47 in998.0 mb 0.00 in0.0 mm 0.00 in0.0 mm 0.05 in1.3 mm
02:38 AM 46.8°F8.2°C 46.4°F8.0°C 98% Calm Calm 1.6 mph2.6 kmh 29.47 in998.0 mb 0.00 in0.0 mm 0.00 in0.0 mm 0.05 in1.3 mm
02:42 AM 46.6°F8.1°C 46.2°F7.9°C 98% 2.2 mph SE3.5 kmh SE 3.1 mph5.0 kmh 29.47 in998.0 mb 0.00 in0.0 mm 0.00 in0.0 mm 0.05 in1.3 mm
02:43 AM 46.8°F8.2°C 46.4°F8.0°C 98% 1.6 mph SE2.6 kmh SE 2.2 mph3.5 kmh 29.47 in998.0 mb 0.00 in0.0 mm 0.00 in0.0 mm 0.05 in1.3 mm
02:48 AM 46.8°F8.2°C 46.4°F8.0°C 98% 0.7 mph NE1.1 kmh NE 2.2 mph3.5 kmh 29.46 in997.6 mb 0.00 in0.0 mm 0.00 in0.0 mm 0.05 in1.3 mm
02:53 AM 46.8°F8.2°C 46.4°F8.0°C 98% 2.2 mph NE3.5 kmh NE 4.5 mph7.2 kmh 29.46 in997.6 mb 0.00 in0.0 mm 0.00 in0.0 mm 0.05 in1.3 mm
02:57 AM 46.8°F8.2°C 46.4°F8.0°C 98% 2.2 mph WNW3.5 kmh WNW 3.8 mph6.1 kmh 29.46 in997.6 mb 0.00 in0.0 mm 0.00 in0.0 mm 0.05 in1.3 mm
02:58 AM 46.8°F8.2°C 46.4°F8.0°C 98% 3.1 mph 5.0 kmh 4.5 mph7.2 kmh 29.46 in997.6 mb 0.00 in0.0 mm 0.00 in0.0 mm 0.05 in1.3 mm
03:02 AM 46.8°F8.2°C 46.4°F8.0°C 98% 1.6 mph NE2.6 kmh NE 3.1 mph5.0 kmh 29.46 in997.6 mb 0.00 in0.0 mm 0.00 in0.0 mm 0.05 in1.3 mm
03:03 AM 46.8°F8.2°C 46.4°F8.0°C 98% 1.6 mph NE2.6 kmh NE 3.1 mph5.0 kmh 29.46 in997.6 mb 0.00 in0.0 mm 0.00 in0.0 mm 0.05 in1.3 mm
03:08 AM 46.8°F8.2°C 46.4°F8.0°C 98% 1.6 mph SE2.6 kmh SE 3.1 mph5.0 kmh 29.46 in997.6 mb 0.00 in0.0 mm 0.00 in0.0 mm 0.05 in1.3 mm
03:13 AM 46.8°F8.2°C 46.4°F8.0°C 98% 2.2 mph S3.5 kmh S 4.5 mph7.2 kmh 29.46 in997.6 mb 0.00 in0.0 mm 0.00 in0.0 mm 0.05 in1.3 mm
03:17 AM 46.8°F8.2°C 46.4°F8.0°C 98% 1.6 mph SE2.6 kmh SE 3.1 mph5.0 kmh 29.45 in997.3 mb 0.00 in0.0 mm 0.00 in0.0 mm 0.05 in1.3 mm
03:18 AM 46.8°F8.2°C 46.4°F8.0°C 98% 0.7 mph SE1.1 kmh SE 2.2 mph3.5 kmh 29.45 in997.3 mb 0.00 in0.0 mm 0.00 in0.0 mm 0.05 in1.3 mm
03:22 AM 46.8°F8.2°C 46.4°F8.0°C 98% 0.7 mph E1.1 kmh E 2.2 mph3.5 kmh 29.45 in997.3 mb 0.00 in0.0 mm 0.00 in0.0 mm 0.05 in1.3 mm
03:23 AM 46.8°F8.2°C 46.4°F8.0°C 98% 1.6 mph E2.6 kmh E 2.2 mph3.5 kmh 29.46 in997.6 mb 0.00 in0.0 mm 0.00 in0.0 mm 0.05 in1.3 mm
03:28 AM 46.8°F8.2°C 46.4°F8.0°C 98% 1.6 mph SE2.6 kmh SE 3.1 mph5.0 kmh 29.45 in997.3 mb 0.00 in0.0 mm 0.00 in0.0 mm 0.05 in1.3 mm
03:33 AM 46.8°F8.2°C 46.4°F8.0°C 98% 0.7 mph S1.1 kmh S 1.6 mph2.6 kmh 29.45 in997.3 mb 0.00 in0.0 mm 0.00 in0.0 mm 0.05 in1.3 mm
03:37 AM 46.8°F8.2°C 46.4°F8.0°C 98% 0.7 mph 1.1 kmh 1.6 mph2.6 kmh 29.45 in997.3 mb 0.00 in0.0 mm 0.00 in0.0 mm 0.05 in1.3 mm
03:38 AM 46.8°F8.2°C 46.4°F8.0°C 98% 2.2 mph NE3.5 kmh NE 5.4 mph8.7 kmh 29.45 in997.3 mb 0.00 in0.0 mm 0.00 in0.0 mm 0.05 in1.3 mm
03:42 AM 46.8°F8.2°C 46.4°F8.0°C 98% 0.7 mph S1.1 kmh S 2.2 mph3.5 kmh 29.45 in997.3 mb 0.00 in0.0 mm 0.00 in0.0 mm 0.05 in1.3 mm
03:43 AM 46.8°F8.2°C 46.4°F8.0°C 98% 0.7 mph SSW1.1 kmh SSW 1.6 mph2.6 kmh 29.45 in997.3 mb 0.00 in0.0 mm 0.00 in0.0 mm 0.05 in1.3 mm
03:48 AM 46.8°F8.2°C 46.4°F8.0°C 98% 1.6 mph S2.6 kmh S 3.1 mph5.0 kmh 29.45 in997.3 mb 0.00 in0.0 mm 0.00 in0.0 mm 0.05 in1.3 mm
03:53 AM 46.8°F8.2°C 46.4°F8.0°C 98% Calm Calm -- 29.45 in997.3 mb 0.00 in0.0 mm 0.00 in0.0 mm 0.05 in1.3 mm
03:57 AM 46.8°F8.2°C 46.4°F8.0°C 98% 1.6 mph S2.6 kmh S 5.4 mph8.7 kmh 29.45 in997.3 mb 0.00 in0.0 mm 0.00 in0.0 mm 0.05 in1.3 mm
03:58 AM 46.8°F8.2°C 46.4°F8.0°C 98% 1.6 mph S2.6 kmh S 3.8 mph6.1 kmh 29.46 in997.6 mb 0.00 in0.0 mm 0.00 in0.0 mm 0.05 in1.3 mm
04:02 AM 46.8°F8.2°C 46.4°F8.0°C 98% 0.7 mph NE1.1 kmh NE 1.6 mph2.6 kmh 29.45 in997.3 mb 0.00 in0.0 mm 0.00 in0.0 mm 0.05 in1.3 mm
04:03 AM 46.8°F8.2°C 46.4°F8.0°C 98% 2.2 mph NE3.5 kmh NE 3.8 mph6.1 kmh 29.45 in997.3 mb 0.00 in0.0 mm 0.00 in0.0 mm 0.05 in1.3 mm
04:08 AM 46.9°F8.3°C 46.5°F8.1°C 98% 1.6 mph E2.6 kmh E 2.2 mph3.5 kmh 29.44 in997.0 mb 0.00 in0.0 mm 0.00 in0.0 mm 0.05 in1.3 mm
04:13 AM 46.8°F8.2°C 46.4°F8.0°C 98% Calm Calm 1.6 mph2.6 kmh 29.45 in997.3 mb 0.00 in0.0 mm 0.00 in0.0 mm 0.05 in1.3 mm
04:17 AM 46.9°F8.3°C 46.5°F8.1°C 98% 1.6 mph SE2.6 kmh SE 2.2 mph3.5 kmh 29.45 in997.3 mb 0.00 in0.0 mm 0.00 in0.0 mm 0.05 in1.3 mm
04:18 AM 46.9°F8.3°C 46.5°F8.1°C 98% 1.6 mph E2.6 kmh E 2.2 mph3.5 kmh 29.45 in997.3 mb 0.00 in0.0 mm 0.00 in0.0 mm 0.05 in1.3 mm
04:22 AM 46.9°F8.3°C 46.5°F8.1°C 98% 2.2 mph S3.5 kmh S 4.5 mph7.2 kmh 29.45 in997.3 mb 0.00 in0.0 mm 0.00 in0.0 mm 0.05 in1.3 mm
04:23 AM 46.9°F8.3°C 46.5°F8.1°C 98% 1.6 mph E2.6 kmh E 2.2 mph3.5 kmh 29.45 in997.3 mb 0.00 in0.0 mm 0.00 in0.0 mm 0.05 in1.3 mm
04:28 AM 46.9°F8.3°C 46.5°F8.1°C 98% 2.2 mph NE3.5 kmh NE 3.1 mph5.0 kmh 29.44 in997.0 mb 0.00 in0.0 mm 0.00 in0.0 mm 0.05 in1.3 mm
04:33 AM 46.9°F8.3°C 46.5°F8.1°C 98% Calm Calm 1.6 mph2.6 kmh 29.44 in997.0 mb 0.00 in0.0 mm 0.00 in0.0 mm 0.05 in1.3 mm
04:37 AM 46.9°F8.3°C 46.5°F8.1°C 98% 1.6 mph SW2.6 kmh SW 3.1 mph5.0 kmh 29.44 in997.0 mb 0.01 in0.3 mm 0.18 in4.6 mm 0.06 in1.5 mm
04:38 AM 46.9°F8.3°C 46.5°F8.1°C 98% 2.2 mph NE3.5 kmh NE 4.5 mph7.2 kmh 29.45 in997.3 mb 0.01 in0.3 mm 0.00 in0.0 mm 0.06 in1.5 mm
04:42 AM 46.9°F8.3°C 46.5°F8.1°C 98% 0.7 mph NE1.1 kmh NE 3.1 mph5.0 kmh 29.44 in997.0 mb 0.01 in0.3 mm 0.00 in0.0 mm 0.06 in1.5 mm
04:43 AM 46.9°F8.3°C 46.5°F8.1°C 98% 2.2 mph SE3.5 kmh SE 3.1 mph5.0 kmh 29.44 in997.0 mb 0.01 in0.3 mm 0.00 in0.0 mm 0.06 in1.5 mm
04:48 AM 46.9°F8.3°C 46.5°F8.1°C 98% 1.6 mph 2.6 kmh 3.8 mph6.1 kmh 29.44 in997.0 mb 0.01 in0.3 mm 0.00 in0.0 mm 0.06 in1.5 mm
04:53 AM 46.9°F8.3°C 46.5°F8.1°C 98% 2.2 mph E3.5 kmh E 5.4 mph8.7 kmh 29.44 in997.0 mb 0.01 in0.3 mm 0.00 in0.0 mm 0.06 in1.5 mm
04:57 AM 46.9°F8.3°C 46.5°F8.1°C 98% 2.2 mph SE3.5 kmh SE 6.0 mph9.7 kmh 29.45 in997.3 mb 0.01 in0.3 mm 0.00 in0.0 mm 0.06 in1.5 mm
04:58 AM 46.9°F8.3°C 46.5°F8.1°C 98% 1.6 mph SE2.6 kmh SE 3.1 mph5.0 kmh 29.44 in997.0 mb 0.01 in0.3 mm 0.00 in0.0 mm 0.06 in1.5 mm
05:02 AM 46.9°F8.3°C 46.5°F8.1°C 98% 3.1 mph E5.0 kmh E 4.5 mph7.2 kmh 29.44 in997.0 mb 0.01 in0.3 mm 0.00 in0.0 mm 0.06 in1.5 mm
05:03 AM 46.9°F8.3°C 46.5°F8.1°C 98% 2.2 mph SE3.5 kmh SE 3.8 mph6.1 kmh 29.44 in997.0 mb 0.01 in0.3 mm 0.00 in0.0 mm 0.06 in1.5 mm
05:08 AM 46.9°F8.3°C 46.5°F8.1°C 98% 0.7 mph E1.1 kmh E 2.2 mph3.5 kmh 29.44 in997.0 mb 0.01 in0.3 mm 0.00 in0.0 mm 0.06 in1.5 mm
05:13 AM 46.9°F8.3°C 46.5°F8.1°C 98% 3.1 mph E5.0 kmh E 6.0 mph9.7 kmh 29.44 in997.0 mb 0.01 in0.3 mm 0.00 in0.0 mm 0.06 in1.5 mm
05:17 AM 46.9°F8.3°C 46.7°F8.2°C 99% 0.7 mph SE1.1 kmh SE 3.1 mph5.0 kmh 29.44 in997.0 mb 0.01 in0.3 mm 0.00 in0.0 mm 0.06 in1.5 mm
05:18 AM 46.9°F8.3°C 46.7°F8.2°C 99% 0.7 mph S1.1 kmh S 3.1 mph5.0 kmh 29.44 in997.0 mb 0.01 in0.3 mm 0.00 in0.0 mm 0.06 in1.5 mm
05:22 AM 46.9°F8.3°C 46.7°F8.2°C 99% 2.2 mph NE3.5 kmh NE 3.8 mph6.1 kmh 29.44 in997.0 mb 0.01 in0.3 mm 0.00 in0.0 mm 0.06 in1.5 mm
05:23 AM 46.9°F8.3°C 46.7°F8.2°C 99% 3.1 mph 5.0 kmh 4.5 mph7.2 kmh 29.44 in997.0 mb 0.01 in0.3 mm 0.00 in0.0 mm 0.06 in1.5 mm
05:28 AM 46.9°F8.3°C 46.7°F8.2°C 99% 3.1 mph NE5.0 kmh NE 4.5 mph7.2 kmh 29.44 in997.0 mb 0.01 in0.3 mm 0.00 in0.0 mm 0.06 in1.5 mm
05:33 AM 46.9°F8.3°C 46.7°F8.2°C 99% 2.2 mph NE3.5 kmh NE 3.8 mph6.1 kmh 29.44 in997.0 mb 0.01 in0.3 mm 0.00 in0.0 mm 0.06 in1.5 mm
05:37 AM 46.9°F8.3°C 46.7°F8.2°C 99% 1.6 mph E2.6 kmh E 3.1 mph5.0 kmh 29.44 in997.0 mb 0.00 in0.0 mm 0.00 in0.0 mm 0.06 in1.5 mm
05:38 AM 46.9°F8.3°C 46.7°F8.2°C 99% 3.1 mph NE5.0 kmh NE 3.8 mph6.1 kmh 29.44 in997.0 mb 0.01 in0.3 mm 0.72 in18.3 mm 0.06 in1.5 mm
05:42 AM 46.9°F8.3°C 46.7°F8.2°C 99% 1.6 mph 2.6 kmh 3.1 mph5.0 kmh 29.44 in997.0 mb 0.00 in0.0 mm 0.00 in0.0 mm 0.06 in1.5 mm
05:43 AM 46.9°F8.3°C 46.7°F8.2°C 99% 1.6 mph NE2.6 kmh NE 3.1 mph5.0 kmh 29.43 in996.6 mb 0.00 in0.0 mm 0.00 in0.0 mm 0.06 in1.5 mm
05:48 AM 46.9°F8.3°C 46.7°F8.2°C 99% 1.6 mph 2.6 kmh 3.8 mph6.1 kmh 29.44 in997.0 mb 0.00 in0.0 mm 0.00 in0.0 mm 0.06 in1.5 mm
05:53 AM 46.9°F8.3°C 46.7°F8.2°C 99% 1.6 mph E2.6 kmh E 3.1 mph5.0 kmh 29.44 in997.0 mb 0.00 in0.0 mm 0.00 in0.0 mm 0.06 in1.5 mm
05:57 AM 46.9°F8.3°C 46.7°F8.2°C 99% 0.7 mph E1.1 kmh E 3.8 mph6.1 kmh 29.44 in997.0 mb 0.00 in0.0 mm 0.00 in0.0 mm 0.06 in1.5 mm
05:58 AM 46.9°F8.3°C 46.7°F8.2°C 99% 2.2 mph NE3.5 kmh NE 3.8 mph6.1 kmh 29.43 in996.6 mb 0.00 in0.0 mm 0.00 in0.0 mm 0.06 in1.5 mm
06:02 AM 46.9°F8.3°C 46.7°F8.2°C 99% 1.6 mph NE2.6 kmh NE 3.1 mph5.0 kmh 29.44 in997.0 mb 0.00 in0.0 mm 0.00 in0.0 mm 0.06 in1.5 mm
06:03 AM 46.9°F8.3°C 46.7°F8.2°C 99% 2.2 mph 3.5 kmh 3.8 mph6.1 kmh 29.44 in997.0 mb 0.00 in0.0 mm 0.00 in0.0 mm 0.06 in1.5 mm
06:08 AM 46.9°F8.3°C 46.7°F8.2°C 99% 1.6 mph E2.6 kmh E 3.1 mph5.0 kmh 29.43 in996.6 mb 0.00 in0.0 mm 0.00 in0.0 mm 0.06 in1.5 mm
06:13 AM 47.3°F8.5°C 47.1°F8.4°C 99% 2.2 mph 3.5 kmh 3.8 mph6.1 kmh 29.43 in996.6 mb 0.00 in0.0 mm 0.00 in0.0 mm 0.06 in1.5 mm
06:17 AM 47.3°F8.5°C 47.1°F8.4°C 99% Calm Calm 2.2 mph3.5 kmh 29.44 in997.0 mb 0.00 in0.0 mm 0.00 in0.0 mm 0.06 in1.5 mm
06:18 AM 47.3°F8.5°C 47.1°F8.4°C 99% Calm Calm 1.6 mph2.6 kmh 29.43 in996.6 mb 0.00 in0.0 mm 0.00 in0.0 mm 0.06 in1.5 mm
06:22 AM 47.3°F8.5°C 47.1°F8.4°C 99% Calm Calm 2.2 mph3.5 kmh 29.44 in997.0 mb 0.00 in0.0 mm 0.00 in0.0 mm 0.06 in1.5 mm
06:23 AM 47.3°F8.5°C 47.1°F8.4°C 99% 1.6 mph E2.6 kmh E 3.1 mph5.0 kmh 29.44 in997.0 mb 0.00 in0.0 mm 0.00 in0.0 mm 0.06 in1.5 mm
06:28 AM 47.3°F8.5°C 47.1°F8.4°C 99% 1.6 mph NE2.6 kmh NE 3.1 mph5.0 kmh 29.43 in996.6 mb 0.00 in0.0 mm 0.00 in0.0 mm 0.06 in1.5 mm
06:33 AM 47.3°F8.5°C 47.1°F8.4°C 99% 0.7 mph SE1.1 kmh SE 3.8 mph6.1 kmh 29.43 in996.6 mb 0.00 in0.0 mm 0.00 in0.0 mm 0.06 in1.5 mm
06:37 AM 47.3°F8.5°C 47.1°F8.4°C 99% 3.8 mph E6.1 kmh E 6.0 mph9.7 kmh 29.43 in996.6 mb 0.00 in0.0 mm 0.00 in0.0 mm 0.06 in1.5 mm
06:38 AM 47.3°F8.5°C 47.1°F8.4°C 99% 2.2 mph SW3.5 kmh SW 4.5 mph7.2 kmh 29.44 in997.0 mb 0.00 in0.0 mm 0.00 in0.0 mm 0.06 in1.5 mm
06:42 AM 47.3°F8.5°C 47.1°F8.4°C 99% 1.6 mph E2.6 kmh E 2.2 mph3.5 kmh 29.44 in997.0 mb 0.00 in0.0 mm 0.00 in0.0 mm 0.06 in1.5 mm
06:43 AM 47.3°F8.5°C 47.1°F8.4°C 99% 2.2 mph S3.5 kmh S 3.8 mph6.1 kmh 29.44 in997.0 mb 0.00 in0.0 mm 0.00 in0.0 mm 0.06 in1.5 mm
06:48 AM 47.3°F8.5°C 47.1°F8.4°C 99% 3.8 mph E6.1 kmh E 7.6 mph12.2 kmh 29.43 in996.6 mb 0.00 in0.0 mm 0.00 in0.0 mm 0.06 in1.5 mm
06:53 AM 47.3°F8.5°C 47.1°F8.4°C 99% 1.6 mph E2.6 kmh E 3.8 mph6.1 kmh 29.43 in996.6 mb 0.00 in0.0 mm 0.00 in0.0 mm 0.06 in1.5 mm
06:57 AM 47.3°F8.5°C 47.1°F8.4°C 99% 1.6 mph E2.6 kmh E 2.2 mph3.5 kmh 29.43 in996.6 mb 0.00 in0.0 mm 0.00 in0.0 mm 0.06 in1.5 mm
06:58 AM 47.3°F8.5°C 47.1°F8.4°C 99% 0.7 mph SE1.1 kmh SE 1.6 mph2.6 kmh 29.43 in996.6 mb 0.00 in0.0 mm 0.00 in0.0 mm 0.06 in1.5 mm
07:02 AM 47.3°F8.5°C 47.1°F8.4°C 99% 3.1 mph NE5.0 kmh NE 5.4 mph8.7 kmh 29.43 in996.6 mb 0.00 in0.0 mm 0.00 in0.0 mm 0.06 in1.5 mm
07:03 AM 47.3°F8.5°C 47.1°F8.4°C 99% 3.1 mph E5.0 kmh E 4.5 mph7.2 kmh 29.44 in997.0 mb 0.00 in0.0 mm 0.00 in0.0 mm 0.06 in1.5 mm
07:08 AM 47.3°F8.5°C 47.1°F8.4°C 99% 1.6 mph 2.6 kmh 3.8 mph6.1 kmh 29.43 in996.6 mb 0.00 in0.0 mm 0.00 in0.0 mm 0.06 in1.5 mm
07:13 AM 47.5°F8.6°C 47.3°F8.5°C 99% 1.6 mph NE2.6 kmh NE 3.1 mph5.0 kmh 29.43 in996.6 mb 0.00 in0.0 mm 0.00 in0.0 mm 0.06 in1.5 mm
07:17 AM 47.5°F8.6°C 47.3°F8.5°C 99% 3.1 mph 5.0 kmh 5.4 mph8.7 kmh 29.43 in996.6 mb 0.00 in0.0 mm 0.00 in0.0 mm 0.06 in1.5 mm
07:18 AM 47.5°F8.6°C 47.3°F8.5°C 99% 0.7 mph S1.1 kmh S 2.2 mph3.5 kmh 29.43 in996.6 mb 0.00 in0.0 mm 0.00 in0.0 mm 0.06 in1.5 mm
07:22 AM 47.5°F8.6°C 47.3°F8.5°C 99% 3.8 mph NE6.1 kmh NE 6.0 mph9.7 kmh 29.43 in996.6 mb 0.00 in0.0 mm 0.00 in0.0 mm 0.06 in1.5 mm
07:23 AM 47.5°F8.6°C 47.3°F8.5°C 99% 3.1 mph S5.0 kmh S 4.5 mph7.2 kmh 29.43 in996.6 mb 0.00 in0.0 mm 0.00 in0.0 mm 0.06 in1.5 mm
07:28 AM 47.5°F8.6°C 47.3°F8.5°C 99% 1.6 mph SW2.6 kmh SW 3.1 mph5.0 kmh 29.43 in996.6 mb 0.00 in0.0 mm 0.00 in0.0 mm 0.06 in1.5 mm
07:33 AM 47.5°F8.6°C 47.3°F8.5°C 99% 3.1 mph E5.0 kmh E 5.4 mph8.7 kmh 29.43 in996.6 mb 0.00 in0.0 mm 0.00 in0.0 mm 0.06 in1.5 mm
07:37 AM 47.7°F8.7°C 47.5°F8.6°C 99% 2.2 mph SW3.5 kmh SW 4.5 mph7.2 kmh 29.43 in996.6 mb 0.00 in0.0 mm 0.00 in0.0 mm 0.06 in1.5 mm
07:38 AM 47.7°F8.7°C 47.5°F8.6°C 99% 2.2 mph NE3.5 kmh NE 3.8 mph6.1 kmh 29.43 in996.6 mb 0.00 in0.0 mm 0.00 in0.0 mm 0.06 in1.5 mm
07:42 AM 47.7°F8.7°C 47.5°F8.6°C 99% 3.1 mph E5.0 kmh E 5.4 mph8.7 kmh 29.43 in996.6 mb 0.00 in0.0 mm 0.00 in0.0 mm 0.06 in1.5 mm
07:43 AM 47.7°F8.7°C 47.5°F8.6°C 99% 1.6 mph NE2.6 kmh NE 3.8 mph6.1 kmh 29.43 in996.6 mb 0.00 in0.0 mm 0.00 in0.0 mm 0.06 in1.5 mm
07:48 AM 47.7°F8.7°C 47.5°F8.6°C 99% 1.6 mph NE2.6 kmh NE 3.1 mph5.0 kmh 29.43 in996.6 mb 0.00 in0.0 mm 0.00 in0.0 mm 0.06 in1.5 mm
07:53 AM 47.7°F8.7°C 47.5°F8.6°C 99% 2.2 mph E3.5 kmh E 4.5 mph7.2 kmh 29.42 in996.3 mb 0.00 in0.0 mm 0.00 in0.0 mm 0.06 in1.5 mm
07:57 AM 47.8°F8.8°C 47.6°F8.7°C 99% 3.1 mph E5.0 kmh E 4.5 mph7.2 kmh 29.42 in996.3 mb 0.00 in0.0 mm 0.00 in0.0 mm 0.06 in1.5 mm
07:58 AM 47.8°F8.8°C 47.6°F8.7°C 99% 3.1 mph NE5.0 kmh NE 6.9 mph11.1 kmh 29.43 in996.6 mb 0.00 in0.0 mm 0.00 in0.0 mm 0.06 in1.5 mm
08:02 AM 47.8°F8.8°C 47.6°F8.7°C 99% 0.7 mph SE1.1 kmh SE 1.6 mph2.6 kmh 29.42 in996.3 mb 0.00 in0.0 mm 0.00 in0.0 mm 0.06 in1.5 mm
08:03 AM 47.8°F8.8°C 47.6°F8.7°C 99% 2.2 mph 3.5 kmh 3.1 mph5.0 kmh 29.42 in996.3 mb 0.00 in0.0 mm 0.00 in0.0 mm 0.06 in1.5 mm
08:08 AM 47.8°F8.8°C 47.6°F8.7°C 99% 2.2 mph 3.5 kmh 5.4 mph8.7 kmh 29.42 in996.3 mb 0.00 in0.0 mm 0.00 in0.0 mm 0.06 in1.5 mm
08:13 AM 48.0°F8.9°C 47.8°F8.8°C 99% 3.8 mph NE6.1 kmh NE 5.4 mph8.7 kmh 29.42 in996.3 mb 0.00 in0.0 mm 0.00 in0.0 mm 0.06 in1.5 mm
08:17 AM 48.0°F8.9°C 47.8°F8.8°C 99% 0.7 mph SW1.1 kmh SW 2.2 mph3.5 kmh 29.42 in996.3 mb 0.00 in0.0 mm 0.00 in0.0 mm 0.06 in1.5 mm
08:18 AM 48.0°F8.9°C 47.8°F8.8°C 99% 3.1 mph SE5.0 kmh SE 6.0 mph9.7 kmh 29.43 in996.6 mb 0.00 in0.0 mm 0.00 in0.0 mm 0.06 in1.5 mm
08:22 AM 48.0°F8.9°C 47.8°F8.8°C 99% 1.6 mph E2.6 kmh E 3.1 mph5.0 kmh 29.42 in996.3 mb 0.00 in0.0 mm 0.00 in0.0 mm 0.06 in1.5 mm
08:23 AM 48.2°F9.0°C 48.0°F8.9°C 99% 1.6 mph NE2.6 kmh NE 3.1 mph5.0 kmh 29.42 in996.3 mb 0.00 in0.0 mm 0.00 in0.0 mm 0.06 in1.5 mm
08:28 AM 48.2°F9.0°C 48.0°F8.9°C 99% 0.7 mph E1.1 kmh E 1.6 mph2.6 kmh 29.42 in996.3 mb 0.00 in0.0 mm 0.00 in0.0 mm 0.06 in1.5 mm
08:33 AM 48.2°F9.0°C 48.0°F8.9°C 99% 1.6 mph S2.6 kmh S 3.8 mph6.1 kmh 29.42 in996.3 mb 0.00 in0.0 mm 0.00 in0.0 mm 0.06 in1.5 mm
08:37 AM 48.4°F9.1°C 48.2°F9.0°C 99% 3.1 mph E5.0 kmh E 6.0 mph9.7 kmh 29.42 in996.3 mb 0.00 in0.0 mm 0.00 in0.0 mm 0.06 in1.5 mm
08:38 AM 48.2°F9.0°C 48.0°F8.9°C 99% 2.2 mph SE3.5 kmh SE 6.0 mph9.7 kmh 29.43 in996.6 mb 0.00 in0.0 mm 0.00 in0.0 mm 0.06 in1.5 mm
08:42 AM 48.4°F9.1°C 48.2°F9.0°C 99% 1.6 mph S2.6 kmh S 4.5 mph7.2 kmh 29.42 in996.3 mb 0.00 in0.0 mm 0.00 in0.0 mm 0.06 in1.5 mm
08:43 AM 48.4°F9.1°C 48.2°F9.0°C 99% 4.5 mph E7.2 kmh E 6.9 mph11.1 kmh 29.42 in996.3 mb 0.00 in0.0 mm 0.00 in0.0 mm 0.06 in1.5 mm
08:48 AM 48.4°F9.1°C 48.2°F9.0°C 99% 0.7 mph S1.1 kmh S 3.1 mph5.0 kmh 29.42 in996.3 mb 0.00 in0.0 mm 0.00 in0.0 mm 0.06 in1.5 mm
08:53 AM 48.6°F9.2°C 48.4°F9.1°C 99% 3.1 mph ENE5.0 kmh ENE 6.9 mph11.1 kmh 29.42 in996.3 mb 0.00 in0.0 mm 0.00 in0.0 mm 0.06 in1.5 mm
08:57 AM 48.6°F9.2°C 48.4°F9.1°C 99% 1.6 mph 2.6 kmh 3.8 mph6.1 kmh 29.42 in996.3 mb 0.00 in0.0 mm 0.00 in0.0 mm 0.06 in1.5 mm
08:58 AM 48.6°F9.2°C 48.4°F9.1°C 99% 1.6 mph SE2.6 kmh SE 3.8 mph6.1 kmh 29.42 in996.3 mb 0.00 in0.0 mm 0.00 in0.0 mm 0.06 in1.5 mm
09:02 AM 48.7°F9.3°C 48.5°F9.2°C 99% 4.5 mph NNW7.2 kmh NNW 6.9 mph11.1 kmh 29.41 in995.9 mb 0.00 in0.0 mm 0.00 in0.0 mm 0.06 in1.5 mm
09:03 AM 48.7°F9.3°C 48.5°F9.2°C 99% 2.2 mph E3.5 kmh E 6.0 mph9.7 kmh 29.41 in995.9 mb 0.00 in0.0 mm 0.00 in0.0 mm 0.06 in1.5 mm
09:08 AM 48.7°F9.3°C 48.5°F9.2°C 99% 2.2 mph NE3.5 kmh NE 5.4 mph8.7 kmh 29.41 in995.9 mb 0.00 in0.0 mm 0.00 in0.0 mm 0.06 in1.5 mm
09:13 AM 48.9°F9.4°C 48.7°F9.3°C 99% 2.2 mph NE3.5 kmh NE 5.4 mph8.7 kmh 29.41 in995.9 mb 0.00 in0.0 mm 0.00 in0.0 mm 0.06 in1.5 mm
09:17 AM 48.9°F9.4°C 48.7°F9.3°C 99% 2.2 mph S3.5 kmh S 4.5 mph7.2 kmh 29.42 in996.3 mb 0.00 in0.0 mm 0.00 in0.0 mm 0.06 in1.5 mm
09:18 AM 48.9°F9.4°C 48.7°F9.3°C 99% 1.6 mph S2.6 kmh S 3.8 mph6.1 kmh 29.42 in996.3 mb 0.00 in0.0 mm 0.00 in0.0 mm 0.06 in1.5 mm
09:22 AM 48.9°F9.4°C 48.7°F9.3°C 99% 3.8 mph 6.1 kmh 6.0 mph9.7 kmh 29.42 in996.3 mb 0.00 in0.0 mm 0.00 in0.0 mm 0.06 in1.5 mm
09:23 AM 48.9°F9.4°C 48.7°F9.3°C 99% 3.8 mph E6.1 kmh E 5.4 mph8.7 kmh 29.42 in996.3 mb 0.00 in0.0 mm 0.00 in0.0 mm 0.06 in1.5 mm
09:28 AM 48.9°F9.4°C 48.7°F9.3°C 99% 1.6 mph NE2.6 kmh NE 3.8 mph6.1 kmh 29.42 in996.3 mb 0.00 in0.0 mm 0.00 in0.0 mm 0.06 in1.5 mm
09:33 AM 49.1°F9.5°C 48.9°F9.4°C 99% 2.2 mph SE3.5 kmh SE 3.1 mph5.0 kmh 29.41 in995.9 mb 0.00 in0.0 mm 0.00 in0.0 mm 0.06 in1.5 mm
09:37 AM 49.1°F9.5°C 48.9°F9.4°C 99% 3.1 mph NE5.0 kmh NE 6.0 mph9.7 kmh 29.42 in996.3 mb 0.00 in0.0 mm 0.00 in0.0 mm 0.06 in1.5 mm
09:38 AM 49.1°F9.5°C 48.9°F9.4°C 99% 0.7 mph NE1.1 kmh NE 3.1 mph5.0 kmh 29.41 in995.9 mb 0.00 in0.0 mm 0.00 in0.0 mm 0.06 in1.5 mm
09:42 AM 49.1°F9.5°C 48.9°F9.4°C 99% 3.8 mph E6.1 kmh E 6.0 mph9.7 kmh 29.42 in996.3 mb 0.00 in0.0 mm 0.00 in0.0 mm 0.06 in1.5 mm
09:43 AM 49.1°F9.5°C 48.9°F9.4°C 99% 2.2 mph E3.5 kmh E 3.8 mph6.1 kmh 29.42 in996.3 mb 0.00 in0.0 mm 0.00 in0.0 mm 0.06 in1.5 mm
09:48 AM 49.3°F9.6°C 49.1°F9.5°C 99% 2.2 mph E3.5 kmh E 5.4 mph8.7 kmh 29.41 in995.9 mb 0.00 in0.0 mm 0.00 in0.0 mm 0.06 in1.5 mm
09:53 AM 49.3°F9.6°C 49.1°F9.5°C 99% 2.2 mph S3.5 kmh S 5.4 mph8.7 kmh 29.41 in995.9 mb 0.00 in0.0 mm 0.00 in0.0 mm 0.06 in1.5 mm
09:57 AM 49.3°F9.6°C 49.1°F9.5°C 99% 0.7 mph NE1.1 kmh NE 1.6 mph2.6 kmh 29.41 in995.9 mb 0.00 in0.0 mm 0.00 in0.0 mm 0.06 in1.5 mm
09:58 AM 49.5°F9.7°C 49.3°F9.6°C 99% 5.4 mph SE8.7 kmh SE 9.2 mph14.8 kmh 29.42 in996.3 mb 0.00 in0.0 mm 0.00 in0.0 mm 0.06 in1.5 mm
10:02 AM 49.5°F9.7°C 49.3°F9.6°C 99% 0.7 mph S1.1 kmh S 2.2 mph3.5 kmh 29.42 in996.3 mb 0.00 in0.0 mm 0.00 in0.0 mm 0.06 in1.5 mm
10:03 AM 49.5°F9.7°C 49.3°F9.6°C 99% 4.5 mph NE7.2 kmh NE 6.0 mph9.7 kmh 29.41 in995.9 mb 0.00 in0.0 mm 0.00 in0.0 mm 0.06 in1.5 mm
10:08 AM 49.5°F9.7°C 49.3°F9.6°C 99% 3.1 mph S5.0 kmh S 4.5 mph7.2 kmh 29.41 in995.9 mb 0.00 in0.0 mm 0.00 in0.0 mm 0.06 in1.5 mm
10:13 AM 49.5°F9.7°C 49.3°F9.6°C 99% 2.2 mph NE3.5 kmh NE 3.8 mph6.1 kmh 29.41 in995.9 mb 0.00 in0.0 mm 0.00 in0.0 mm 0.06 in1.5 mm
10:17 AM 49.6°F9.8°C 49.4°F9.7°C 99% 3.8 mph S6.1 kmh S 6.0 mph9.7 kmh 29.42 in996.3 mb 0.00 in0.0 mm 0.00 in0.0 mm 0.06 in1.5 mm
10:18 AM 49.6°F9.8°C 49.4°F9.7°C 99% 0.7 mph NW1.1 kmh NW 3.1 mph5.0 kmh 29.42 in996.3 mb 0.00 in0.0 mm 0.00 in0.0 mm 0.06 in1.5 mm
10:22 AM 49.6°F9.8°C 49.4°F9.7°C 99% 1.6 mph S2.6 kmh S 2.2 mph3.5 kmh 29.41 in995.9 mb 0.00 in0.0 mm 0.00 in0.0 mm 0.06 in1.5 mm
10:23 AM 49.6°F9.8°C 49.4°F9.7°C 99% 0.7 mph E1.1 kmh E 3.1 mph5.0 kmh 29.41 in995.9 mb 0.00 in0.0 mm 0.00 in0.0 mm 0.06 in1.5 mm
10:28 AM 49.6°F9.8°C 49.4°F9.7°C 99% 1.6 mph SE2.6 kmh SE 2.2 mph3.5 kmh 29.42 in996.3 mb 0.00 in0.0 mm 0.00 in0.0 mm 0.06 in1.5 mm
10:33 AM 49.8°F9.9°C 49.6°F9.8°C 99% 4.5 mph E7.2 kmh E 8.3 mph13.4 kmh 29.42 in996.3 mb 0.00 in0.0 mm 0.00 in0.0 mm 0.06 in1.5 mm
10:37 AM 49.8°F9.9°C 49.6°F9.8°C 99% 1.6 mph E2.6 kmh E 3.1 mph5.0 kmh 29.42 in996.3 mb 0.00 in0.0 mm 0.00 in0.0 mm 0.06 in1.5 mm
10:38 AM 49.8°F9.9°C 49.6°F9.8°C 99% 2.2 mph 3.5 kmh 4.5 mph7.2 kmh 29.42 in996.3 mb 0.00 in0.0 mm 0.00 in0.0 mm 0.06 in1.5 mm
10:42 AM 50.0°F10.0°C 49.8°F9.9°C 99% 0.7 mph SE1.1 kmh SE 1.6 mph2.6 kmh 29.41 in995.9 mb 0.00 in0.0 mm 0.00 in0.0 mm 0.06 in1.5 mm
10:43 AM 50.0°F10.0°C 49.8°F9.9°C 99% 0.7 mph E1.1 kmh E 3.1 mph5.0 kmh 29.42 in996.3 mb 0.00 in0.0 mm 0.00 in0.0 mm 0.06 in1.5 mm
10:48 AM 50.0°F10.0°C 49.8°F9.9°C 99% 1.6 mph SE2.6 kmh SE 3.1 mph5.0 kmh 29.42 in996.3 mb 0.00 in0.0 mm 0.00 in0.0 mm 0.06 in1.5 mm
10:53 AM 50.0°F10.0°C 49.8°F9.9°C 99% 3.1 mph S5.0 kmh S 4.5 mph7.2 kmh 29.41 in995.9 mb 0.00 in0.0 mm 0.00 in0.0 mm 0.06 in1.5 mm
10:57 AM 50.0°F10.0°C 49.8°F9.9°C 99% 3.8 mph SW6.1 kmh SW 5.4 mph8.7 kmh 29.41 in995.9 mb 0.00 in0.0 mm 0.00 in0.0 mm 0.06 in1.5 mm
10:58 AM 50.0°F10.0°C 49.8°F9.9°C 99% 3.1 mph NE5.0 kmh NE 4.5 mph7.2 kmh 29.41 in995.9 mb 0.00 in0.0 mm 0.00 in0.0 mm 0.06 in1.5 mm
11:02 AM 50.2°F10.1°C 50.0°F10.0°C 99% 0.7 mph SE1.1 kmh SE 3.1 mph5.0 kmh 29.42 in996.3 mb 0.00 in0.0 mm 0.00 in0.0 mm 0.06 in1.5 mm
11:03 AM 50.2°F10.1°C 50.0°F10.0°C 99% 1.6 mph 2.6 kmh 6.0 mph9.7 kmh 29.41 in995.9 mb 0.00 in0.0 mm 0.00 in0.0 mm 0.06 in1.5 mm
11:08 AM 50.2°F10.1°C 50.0°F10.0°C 99% 1.6 mph SE2.6 kmh SE 3.8 mph6.1 kmh 29.41 in995.9 mb 0.00 in0.0 mm 0.00 in0.0 mm 0.06 in1.5 mm
11:13 AM 50.2°F10.1°C 50.0°F10.0°C 99% 2.2 mph E3.5 kmh E 3.1 mph5.0 kmh 29.41 in995.9 mb 0.00 in0.0 mm 0.00 in0.0 mm 0.06 in1.5 mm
11:17 AM 50.4°F10.2°C 50.2°F10.1°C 99% 1.6 mph 2.6 kmh 4.5 mph7.2 kmh 29.42 in996.3 mb 0.00 in0.0 mm 0.00 in0.0 mm 0.06 in1.5 mm
11:18 AM 50.4°F10.2°C 50.2°F10.1°C 99% 3.8 mph S6.1 kmh S 6.9 mph11.1 kmh 29.41 in995.9 mb 0.00 in0.0 mm 0.00 in0.0 mm 0.06 in1.5 mm
11:22 AM 50.4°F10.2°C 50.2°F10.1°C 99% 1.6 mph S2.6 kmh S 4.5 mph7.2 kmh 29.41 in995.9 mb 0.00 in0.0 mm 0.00 in0.0 mm 0.06 in1.5 mm
11:23 AM 50.4°F10.2°C 50.2°F10.1°C 99% 3.1 mph S5.0 kmh S 5.4 mph8.7 kmh 29.41 in995.9 mb 0.00 in0.0 mm 0.00 in0.0 mm 0.06 in1.5 mm
11:28 AM 50.5°F10.3°C 50.3°F10.2°C 99% 0.7 mph E1.1 kmh E 3.1 mph5.0 kmh 29.41 in995.9 mb 0.00 in0.0 mm 0.00 in0.0 mm 0.06 in1.5 mm
11:33 AM 50.7°F10.4°C 50.5°F10.3°C 99% 3.1 mph NE5.0 kmh NE 7.6 mph12.2 kmh 29.41 in995.9 mb 0.00 in0.0 mm 0.00 in0.0 mm 0.06 in1.5 mm
11:37 AM 50.9°F10.5°C 50.7°F10.4°C 99% 1.6 mph NE2.6 kmh NE 3.8 mph6.1 kmh 29.41 in995.9 mb 0.00 in0.0 mm 0.00 in0.0 mm 0.06 in1.5 mm
11:38 AM 50.7°F10.4°C 50.5°F10.3°C 99% 2.2 mph E3.5 kmh E 5.4 mph8.7 kmh 29.41 in995.9 mb 0.00 in0.0 mm 0.00 in0.0 mm 0.06 in1.5 mm
11:42 AM 50.9°F10.5°C 50.7°F10.4°C 99% 4.5 mph W7.2 kmh W 6.0 mph9.7 kmh 29.41 in995.9 mb 0.00 in0.0 mm 0.00 in0.0 mm 0.06 in1.5 mm
11:43 AM 50.9°F10.5°C 50.7°F10.4°C 99% 3.1 mph E5.0 kmh E 6.0 mph9.7 kmh 29.41 in995.9 mb 0.00 in0.0 mm 0.00 in0.0 mm 0.06 in1.5 mm
11:48 AM 51.3°F10.7°C 51.1°F10.6°C 99% 3.1 mph E5.0 kmh E 5.4 mph8.7 kmh 29.41 in995.9 mb 0.00 in0.0 mm 0.00 in0.0 mm 0.06 in1.5 mm
11:53 AM 51.3°F10.7°C 51.1°F10.6°C 99% 1.6 mph S2.6 kmh S 3.1 mph5.0 kmh 29.41 in995.9 mb 0.00 in0.0 mm 0.00 in0.0 mm 0.06 in1.5 mm
11:57 AM 51.6°F10.9°C 51.4°F10.8°C 99% 1.6 mph SE2.6 kmh SE 4.5 mph7.2 kmh 29.41 in995.9 mb 0.00 in0.0 mm 0.00 in0.0 mm 0.06 in1.5 mm
11:58 AM 51.3°F10.7°C 51.1°F10.6°C 99% 1.6 mph SE2.6 kmh SE 3.8 mph6.1 kmh 29.41 in995.9 mb 0.00 in0.0 mm 0.00 in0.0 mm 0.06 in1.5 mm
12:02 PM 52.0°F11.1°C 51.6°F10.9°C 98% 3.8 mph SE6.1 kmh SE 7.6 mph12.2 kmh 29.41 in995.9 mb 0.00 in0.0 mm 0.00 in0.0 mm 0.06 in1.5 mm
12:03 PM 51.8°F11.0°C 51.4°F10.8°C 98% 2.2 mph E3.5 kmh E 3.1 mph5.0 kmh 29.41 in995.9 mb 0.00 in0.0 mm 0.00 in0.0 mm 0.06 in1.5 mm
12:08 PM 51.8°F11.0°C 51.4°F10.8°C 98% 1.6 mph SE2.6 kmh SE 3.1 mph5.0 kmh 29.40 in995.6 mb 0.00 in0.0 mm 0.00 in0.0 mm 0.06 in1.5 mm
12:13 PM 51.8°F11.0°C 51.4°F10.8°C 98% 5.4 mph SE8.7 kmh SE 8.3 mph13.4 kmh 29.41 in995.9 mb 0.00 in0.0 mm 0.00 in0.0 mm 0.06 in1.5 mm
12:17 PM 51.6°F10.9°C 51.4°F10.8°C 99% 3.1 mph NE5.0 kmh NE 5.4 mph8.7 kmh 29.40 in995.6 mb 0.00 in0.0 mm 0.00 in0.0 mm 0.06 in1.5 mm
12:18 PM 51.6°F10.9°C 51.4°F10.8°C 99% 0.7 mph S1.1 kmh S 3.8 mph6.1 kmh 29.40 in995.6 mb 0.00 in0.0 mm 0.00 in0.0 mm 0.06 in1.5 mm
12:22 PM 51.6°F10.9°C 51.4°F10.8°C 99% 1.6 mph SE2.6 kmh SE 3.1 mph5.0 kmh 29.40 in995.6 mb 0.00 in0.0 mm 0.00 in0.0 mm 0.06 in1.5 mm
12:23 PM 51.8°F11.0°C 51.4°F10.8°C 98% 3.1 mph E5.0 kmh E 6.0 mph9.7 kmh 29.41 in995.9 mb 0.00 in0.0 mm 0.00 in0.0 mm 0.06 in1.5 mm
12:28 PM 51.8°F11.0°C 51.4°F10.8°C 98% 2.2 mph S3.5 kmh S 6.0 mph9.7 kmh 29.40 in995.6 mb 0.00 in0.0 mm 0.00 in0.0 mm 0.06 in1.5 mm
12:33 PM 52.0°F11.1°C 51.6°F10.9°C 98% 2.2 mph S3.5 kmh S 4.5 mph7.2 kmh 29.40 in995.6 mb 0.00 in0.0 mm 0.00 in0.0 mm 0.06 in1.5 mm
12:37 PM 52.2°F11.2°C 51.7°F10.9°C 98% 3.1 mph SW5.0 kmh SW 5.4 mph8.7 kmh 29.40 in995.6 mb 0.00 in0.0 mm 0.00 in0.0 mm 0.06 in1.5 mm
12:38 PM 52.0°F11.1°C 51.6°F10.9°C 98% 1.6 mph SE2.6 kmh SE 3.8 mph6.1 kmh 29.40 in995.6 mb 0.00 in0.0 mm 0.00 in0.0 mm 0.06 in1.5 mm
12:42 PM 52.2°F11.2°C 51.7°F10.9°C 98% 3.1 mph E5.0 kmh E 5.4 mph8.7 kmh 29.40 in995.6 mb 0.00 in0.0 mm 0.00 in0.0 mm 0.06 in1.5 mm
12:43 PM 52.2°F11.2°C 51.7°F10.9°C 98% 4.5 mph NE7.2 kmh NE 7.6 mph12.2 kmh 29.40 in995.6 mb 0.00 in0.0 mm 0.00 in0.0 mm 0.06 in1.5 mm
12:48 PM 52.2°F11.2°C 51.7°F10.9°C 98% 0.7 mph NE1.1 kmh NE 3.8 mph6.1 kmh 29.40 in995.6 mb 0.00 in0.0 mm 0.00 in0.0 mm 0.06 in1.5 mm
12:53 PM 52.3°F11.3°C 51.9°F11.1°C 98% 4.5 mph NE7.2 kmh NE 12.1 mph19.5 kmh 29.40 in995.6 mb 0.00 in0.0 mm 0.00 in0.0 mm 0.06 in1.5 mm
12:57 PM 52.7°F11.5°C 52.3°F11.3°C 98% 2.2 mph SW3.5 kmh SW 3.8 mph6.1 kmh 29.40 in995.6 mb 0.00 in0.0 mm 0.00 in0.0 mm 0.06 in1.5 mm
12:58 PM 52.5°F11.4°C 52.1°F11.2°C 98% 2.2 mph NE3.5 kmh NE 5.4 mph8.7 kmh 29.40 in995.6 mb 0.00 in0.0 mm 0.00 in0.0 mm 0.06 in1.5 mm
01:02 PM 52.9°F11.6°C 52.5°F11.4°C 98% 2.2 mph NE3.5 kmh NE 5.4 mph8.7 kmh 29.40 in995.6 mb 0.00 in0.0 mm 0.00 in0.0 mm 0.06 in1.5 mm
01:03 PM 53.1°F11.7°C 52.6°F11.4°C 98% 3.1 mph NE5.0 kmh NE 6.0 mph9.7 kmh 29.40 in995.6 mb 0.00 in0.0 mm 0.00 in0.0 mm 0.06 in1.5 mm
01:08 PM 53.6°F12.0°C 53.0°F11.7°C 97% 2.2 mph NE3.5 kmh NE 6.9 mph11.1 kmh 29.39 in995.3 mb 0.00 in0.0 mm 0.00 in0.0 mm 0.06 in1.5 mm
01:13 PM 54.0°F12.2°C 53.3°F11.8°C 97% 0.7 mph 1.1 kmh 2.2 mph3.5 kmh 29.39 in995.3 mb 0.00 in0.0 mm 0.00 in0.0 mm 0.06 in1.5 mm
01:17 PM 54.0°F12.2°C 53.3°F11.8°C 97% 1.6 mph 2.6 kmh 4.5 mph7.2 kmh 29.39 in995.3 mb 0.00 in0.0 mm 0.00 in0.0 mm 0.06 in1.5 mm
01:18 PM 54.0°F12.2°C 53.3°F11.8°C 97% 3.8 mph E6.1 kmh E 6.9 mph11.1 kmh 29.39 in995.3 mb 0.00 in0.0 mm 0.00 in0.0 mm 0.06 in1.5 mm
01:22 PM 54.3°F12.4°C 53.7°F12.1°C 97% 1.6 mph 2.6 kmh 5.4 mph8.7 kmh 29.39 in995.3 mb 0.00 in0.0 mm 0.00 in0.0 mm 0.06 in1.5 mm
01:23 PM 54.3°F12.4°C 53.7°F12.1°C 97% 3.8 mph NE6.1 kmh NE 6.9 mph11.1 kmh 29.39 in995.3 mb 0.00 in0.0 mm 0.00 in0.0 mm 0.06 in1.5 mm
01:28 PM 54.0°F12.2°C 53.3°F11.8°C 97% 1.6 mph E2.6 kmh E 3.8 mph6.1 kmh 29.39 in995.3 mb 0.00 in0.0 mm 0.00 in0.0 mm 0.06 in1.5 mm
01:33 PM 53.8°F12.1°C 53.2°F11.8°C 97% 3.1 mph NE5.0 kmh NE 5.4 mph8.7 kmh 29.39 in995.3 mb 0.00 in0.0 mm 0.00 in0.0 mm 0.06 in1.5 mm
01:37 PM 53.6°F12.0°C 53.0°F11.7°C 97% 3.8 mph WNW6.1 kmh WNW 5.4 mph8.7 kmh 29.39 in995.3 mb 0.00 in0.0 mm 0.00 in0.0 mm 0.06 in1.5 mm
01:38 PM 53.6°F12.0°C 53.0°F11.7°C 97% 3.8 mph E6.1 kmh E 4.5 mph7.2 kmh 29.39 in995.3 mb 0.00 in0.0 mm 0.00 in0.0 mm 0.06 in1.5 mm
01:42 PM 53.6°F12.0°C 53.0°F11.7°C 97% 3.1 mph SE5.0 kmh SE 4.5 mph7.2 kmh 29.39 in995.3 mb 0.00 in0.0 mm 0.00 in0.0 mm 0.06 in1.5 mm
01:43 PM 53.6°F12.0°C 53.0°F11.7°C 97% 1.6 mph NE2.6 kmh NE 3.1 mph5.0 kmh 29.39 in995.3 mb 0.00 in0.0 mm 0.00 in0.0 mm 0.06 in1.5 mm
01:48 PM 53.4°F11.9°C 53.0°F11.7°C 98% 3.1 mph NE5.0 kmh NE 6.0 mph9.7 kmh 29.38 in994.9 mb 0.00 in0.0 mm 0.00 in0.0 mm 0.06 in1.5 mm
01:53 PM 53.4°F11.9°C 53.0°F11.7°C 98% 1.6 mph NW2.6 kmh NW 3.1 mph5.0 kmh 29.38 in994.9 mb 0.00 in0.0 mm 0.00 in0.0 mm 0.06 in1.5 mm
01:57 PM 53.6°F12.0°C 53.0°F11.7°C 97% 2.2 mph 3.5 kmh 4.5 mph7.2 kmh 29.38 in994.9 mb 0.00 in0.0 mm 0.00 in0.0 mm 0.06 in1.5 mm
01:58 PM 53.6°F12.0°C 53.0°F11.7°C 97% Calm Calm 2.2 mph3.5 kmh 29.38 in994.9 mb 0.00 in0.0 mm 0.00 in0.0 mm 0.06 in1.5 mm
02:02 PM 53.6°F12.0°C 52.8°F11.6°C 96% 3.8 mph NE6.1 kmh NE 8.3 mph13.4 kmh 29.38 in994.9 mb 0.00 in0.0 mm 0.00 in0.0 mm 0.06 in1.5 mm
02:03 PM 53.6°F12.0°C 52.8°F11.6°C 96% 0.7 mph SE1.1 kmh SE 3.8 mph6.1 kmh 29.38 in994.9 mb 0.00 in0.0 mm 0.00 in0.0 mm 0.06 in1.5 mm
02:08 PM 53.6°F12.0°C 52.5°F11.4°C 95% 3.1 mph NE5.0 kmh NE 5.4 mph8.7 kmh 29.39 in995.3 mb 0.00 in0.0 mm 0.00 in0.0 mm 0.06 in1.5 mm
02:13 PM 53.6°F12.0°C 52.5°F11.4°C 95% Calm Calm 2.2 mph3.5 kmh 29.38 in994.9 mb 0.00 in0.0 mm 0.00 in0.0 mm 0.06 in1.5 mm
02:17 PM 53.8°F12.1°C 52.5°F11.4°C 94% 3.8 mph NE6.1 kmh NE 6.9 mph11.1 kmh 29.38 in994.9 mb 0.00 in0.0 mm 0.00 in0.0 mm 0.06 in1.5 mm
02:18 PM 53.8°F12.1°C 52.5°F11.4°C 94% 0.7 mph E1.1 kmh E 2.2 mph3.5 kmh 29.38 in994.9 mb 0.00 in0.0 mm 0.00 in0.0 mm 0.06 in1.5 mm
02:22 PM 53.6°F12.0°C 52.1°F11.2°C 93% 2.2 mph NE3.5 kmh NE 5.4 mph8.7 kmh 29.38 in994.9 mb 0.00 in0.0 mm 0.00 in0.0 mm 0.06 in1.5 mm
02:23 PM 53.6°F12.0°C 52.1°F11.2°C 93% 3.1 mph NE5.0 kmh NE 6.9 mph11.1 kmh 29.38 in994.9 mb 0.00 in0.0 mm 0.00 in0.0 mm 0.06 in1.5 mm
02:28 PM 53.8°F12.1°C 52.3°F11.3°C 93% 3.8 mph SE6.1 kmh SE 5.4 mph8.7 kmh 29.36 in994.2 mb 0.00 in0.0 mm 0.00 in0.0 mm 0.06 in1.5 mm
02:33 PM 53.8°F12.1°C 52.1°F11.2°C 92% 3.8 mph SE6.1 kmh SE 5.4 mph8.7 kmh 29.37 in994.6 mb 0.00 in0.0 mm 0.00 in0.0 mm 0.06 in1.5 mm
02:37 PM 53.6°F12.0°C 51.9°F11.1°C 92% 1.6 mph E2.6 kmh E 3.1 mph5.0 kmh 29.37 in994.6 mb 0.00 in0.0 mm 0.00 in0.0 mm 0.06 in1.5 mm
02:38 PM 53.6°F12.0°C 51.9°F11.1°C 92% 5.4 mph E8.7 kmh E 9.8 mph15.8 kmh 29.37 in994.6 mb 0.00 in0.0 mm 0.00 in0.0 mm 0.06 in1.5 mm
02:42 PM 53.6°F12.0°C 51.7°F10.9°C 91% 0.7 mph S1.1 kmh S 2.2 mph3.5 kmh 29.37 in994.6 mb 0.00 in0.0 mm 0.00 in0.0 mm 0.06 in1.5 mm
02:43 PM 53.6°F12.0°C 51.7°F10.9°C 91% 3.8 mph E6.1 kmh E 6.0 mph9.7 kmh 29.37 in994.6 mb 0.00 in0.0 mm 0.00 in0.0 mm 0.06 in1.5 mm
02:48 PM 53.6°F12.0°C 51.7°F10.9°C 91% 3.1 mph NE5.0 kmh NE 5.4 mph8.7 kmh 29.37 in994.6 mb 0.00 in0.0 mm 0.00 in0.0 mm 0.06 in1.5 mm
02:53 PM 53.8°F12.1°C 51.8°F11.0°C 91% 4.5 mph NE7.2 kmh NE 7.6 mph12.2 kmh 29.37 in994.6 mb 0.00 in0.0 mm 0.00 in0.0 mm 0.06 in1.5 mm
02:57 PM 53.8°F12.1°C 51.8°F11.0°C 91% 2.2 mph SE3.5 kmh SE 4.5 mph7.2 kmh 29.36 in994.2 mb 0.00 in0.0 mm 0.00 in0.0 mm 0.06 in1.5 mm
02:58 PM 53.8°F12.1°C 51.8°F11.0°C 91% 3.1 mph E5.0 kmh E 4.5 mph7.2 kmh 29.37 in994.6 mb 0.00 in0.0 mm 0.00 in0.0 mm 0.06 in1.5 mm
03:02 PM 53.8°F12.1°C 51.8°F11.0°C 91% 1.6 mph E2.6 kmh E 4.5 mph7.2 kmh 29.36 in994.2 mb 0.00 in0.0 mm 0.00 in0.0 mm 0.06 in1.5 mm
03:03 PM 53.8°F12.1°C 51.8°F11.0°C 91% 4.5 mph E7.2 kmh E 7.6 mph12.2 kmh 29.36 in994.2 mb 0.00 in0.0 mm 0.00 in0.0 mm 0.06 in1.5 mm
03:08 PM 53.8°F12.1°C 51.8°F11.0°C 91% 3.8 mph NE6.1 kmh NE 7.6 mph12.2 kmh 29.36 in994.2 mb 0.00 in0.0 mm 0.00 in0.0 mm 0.06 in1.5 mm
03:13 PM 54.0°F12.2°C 52.0°F11.1°C 91% 3.1 mph NE5.0 kmh NE 4.5 mph7.2 kmh 29.36 in994.2 mb 0.00 in0.0 mm 0.00 in0.0 mm 0.06 in1.5 mm
03:17 PM 54.0°F12.2°C 52.0°F11.1°C 91% 5.4 mph 8.7 kmh 8.3 mph13.4 kmh 29.36 in994.2 mb 0.00 in0.0 mm 0.00 in0.0 mm 0.06 in1.5 mm
03:18 PM 54.0°F12.2°C 52.0°F11.1°C 91% 3.8 mph NE6.1 kmh NE 5.4 mph8.7 kmh 29.36 in994.2 mb 0.00 in0.0 mm 0.00 in0.0 mm 0.06 in1.5 mm
03:22 PM 53.8°F12.1°C 51.8°F11.0°C 91% 3.8 mph E6.1 kmh E 6.0 mph9.7 kmh 29.35 in993.9 mb 0.00 in0.0 mm 0.00 in0.0 mm 0.06 in1.5 mm
03:23 PM 53.8°F12.1°C 51.8°F11.0°C 91% 3.1 mph N5.0 kmh N 5.4 mph8.7 kmh 29.35 in993.9 mb 0.00 in0.0 mm 0.00 in0.0 mm 0.06 in1.5 mm
03:28 PM 53.8°F12.1°C 51.8°F11.0°C 91% 3.1 mph NE5.0 kmh NE 5.4 mph8.7 kmh 29.35 in993.9 mb 0.00 in0.0 mm 0.00 in0.0 mm 0.06 in1.5 mm
03:33 PM 54.0°F12.2°C 52.0°F11.1°C 91% 3.1 mph E5.0 kmh E 4.5 mph7.2 kmh 29.35 in993.9 mb 0.00 in0.0 mm 0.00 in0.0 mm 0.06 in1.5 mm
03:37 PM 54.0°F12.2°C 52.0°F11.1°C 91% 1.6 mph 2.6 kmh 4.5 mph7.2 kmh 29.35 in993.9 mb 0.00 in0.0 mm 0.00 in0.0 mm 0.06 in1.5 mm
03:38 PM 54.0°F12.2°C 52.0°F11.1°C 91% 1.6 mph W2.6 kmh W 4.5 mph7.2 kmh 29.35 in993.9 mb 0.00 in0.0 mm 0.00 in0.0 mm 0.06 in1.5 mm
03:42 PM 53.8°F12.1°C 51.8°F11.0°C 91% 3.1 mph NE5.0 kmh NE 4.5 mph7.2 kmh 29.35 in993.9 mb 0.00 in0.0 mm 0.00 in0.0 mm 0.06 in1.5 mm
03:43 PM 53.8°F12.1°C 51.8°F11.0°C 91% 3.8 mph 6.1 kmh 5.4 mph8.7 kmh 29.34 in993.6 mb 0.00 in0.0 mm 0.00 in0.0 mm 0.06 in1.5 mm
03:48 PM 53.8°F12.1°C 51.8°F11.0°C 91% 3.8 mph NE6.1 kmh NE 9.8 mph15.8 kmh 29.35 in993.9 mb 0.00 in0.0 mm 0.00 in0.0 mm 0.06 in1.5 mm
03:53 PM 53.8°F12.1°C 51.8°F11.0°C 91% 3.8 mph E6.1 kmh E 5.4 mph8.7 kmh 29.34 in993.6 mb 0.00 in0.0 mm 0.00 in0.0 mm 0.06 in1.5 mm
03:57 PM 53.6°F12.0°C 51.7°F10.9°C 91% 3.1 mph NE5.0 kmh NE 4.5 mph7.2 kmh 29.34 in993.6 mb 0.00 in0.0 mm 0.00 in0.0 mm 0.06 in1.5 mm
03:58 PM 53.6°F12.0°C 51.7°F10.9°C 91% 3.1 mph NW5.0 kmh NW 5.4 mph8.7 kmh 29.34 in993.6 mb 0.00 in0.0 mm 0.00 in0.0 mm 0.06 in1.5 mm
04:02 PM 53.6°F12.0°C 51.7°F10.9°C 91% 2.2 mph E3.5 kmh E 5.4 mph8.7 kmh 29.34 in993.6 mb 0.00 in0.0 mm 0.00 in0.0 mm 0.06 in1.5 mm
04:03 PM 53.6°F12.0°C 51.7°F10.9°C 91% 4.5 mph NE7.2 kmh NE 6.9 mph11.1 kmh 29.34 in993.6 mb 0.00 in0.0 mm 0.00 in0.0 mm 0.06 in1.5 mm
04:08 PM 53.4°F11.9°C 51.9°F11.1°C 93% 3.1 mph NE5.0 kmh NE 6.0 mph9.7 kmh 29.34 in993.6 mb 0.00 in0.0 mm 0.00 in0.0 mm 0.06 in1.5 mm
04:13 PM 53.4°F11.9°C 51.9°F11.1°C 93% 3.8 mph E6.1 kmh E 6.9 mph11.1 kmh 29.33 in993.2 mb 0.00 in0.0 mm 0.00 in0.0 mm 0.06 in1.5 mm
04:17 PM 53.4°F11.9°C 51.9°F11.1°C 93% 2.2 mph NE3.5 kmh NE 4.5 mph7.2 kmh 29.33 in993.2 mb 0.00 in0.0 mm 0.00 in0.0 mm 0.06 in1.5 mm
04:18 PM 53.4°F11.9°C 51.9°F11.1°C 93% 6.9 mph 11.1 kmh 8.3 mph13.4 kmh 29.33 in993.2 mb 0.00 in0.0 mm 0.00 in0.0 mm 0.06 in1.5 mm
04:22 PM 53.4°F11.9°C 51.9°F11.1°C 93% 3.8 mph SE6.1 kmh SE 6.0 mph9.7 kmh 29.33 in993.2 mb 0.00 in0.0 mm 0.00 in0.0 mm 0.06 in1.5 mm
04:23 PM 53.4°F11.9°C 51.9°F11.1°C 93% 5.4 mph NE8.7 kmh NE 6.0 mph9.7 kmh 29.33 in993.2 mb 0.00 in0.0 mm 0.00 in0.0 mm 0.06 in1.5 mm
04:28 PM 53.4°F11.9°C 51.9°F11.1°C 93% 4.5 mph NE7.2 kmh NE 9.2 mph14.8 kmh 29.33 in993.2 mb 0.00 in0.0 mm 0.00 in0.0 mm 0.06 in1.5 mm
04:33 PM 53.4°F11.9°C 51.9°F11.1°C 93% 2.2 mph ENE3.5 kmh ENE 6.9 mph11.1 kmh 29.33 in993.2 mb 0.00 in0.0 mm 0.00 in0.0 mm 0.06 in1.5 mm
04:37 PM 53.4°F11.9°C 51.9°F11.1°C 93% 3.8 mph SE6.1 kmh SE 6.9 mph11.1 kmh 29.32 in992.9 mb 0.00 in0.0 mm 0.00 in0.0 mm 0.06 in1.5 mm
04:38 PM 53.4°F11.9°C 51.9°F11.1°C 93% 2.2 mph ENE3.5 kmh ENE 5.4 mph8.7 kmh 29.32 in992.9 mb 0.00 in0.0 mm 0.00 in0.0 mm 0.06 in1.5 mm
04:42 PM 53.4°F11.9°C 51.9°F11.1°C 93% 3.8 mph NE6.1 kmh NE 6.0 mph9.7 kmh 29.32 in992.9 mb 0.00 in0.0 mm 0.00 in0.0 mm 0.06 in1.5 mm
04:43 PM 53.4°F11.9°C 51.9°F11.1°C 93% 2.2 mph SE3.5 kmh SE 3.1 mph5.0 kmh 29.32 in992.9 mb 0.00 in0.0 mm 0.00 in0.0 mm 0.06 in1.5 mm
04:48 PM 53.4°F11.9°C 51.9°F11.1°C 93% 4.5 mph NE7.2 kmh NE 8.3 mph13.4 kmh 29.32 in992.9 mb 0.00 in0.0 mm 0.00 in0.0 mm 0.06 in1.5 mm
04:53 PM 53.4°F11.9°C 51.9°F11.1°C 93% 5.4 mph NE8.7 kmh NE 9.2 mph14.8 kmh 29.31 in992.6 mb 0.01 in0.3 mm 0.14 in3.6 mm 0.07 in1.8 mm
04:57 PM 53.4°F11.9°C 51.9°F11.1°C 93% 4.5 mph SE7.2 kmh SE 7.6 mph12.2 kmh 29.32 in992.9 mb 0.01 in0.3 mm 0.00 in0.0 mm 0.07 in1.8 mm
04:58 PM 53.4°F11.9°C 51.9°F11.1°C 93% 4.5 mph 7.2 kmh 8.3 mph13.4 kmh 29.32 in992.9 mb 0.01 in0.3 mm 0.00 in0.0 mm 0.07 in1.8 mm
05:02 PM 53.4°F11.9°C 52.1°F11.2°C 94% 5.4 mph SE8.7 kmh SE 9.8 mph15.8 kmh 29.31 in992.6 mb 0.01 in0.3 mm 0.00 in0.0 mm 0.07 in1.8 mm
05:03 PM 53.4°F11.9°C 52.1°F11.2°C 94% 3.1 mph S5.0 kmh S 5.4 mph8.7 kmh 29.32 in992.9 mb 0.01 in0.3 mm 0.00 in0.0 mm 0.07 in1.8 mm
05:08 PM 53.4°F11.9°C 52.1°F11.2°C 94% 3.1 mph NE5.0 kmh NE 6.0 mph9.7 kmh 29.31 in992.6 mb 0.01 in0.3 mm 0.00 in0.0 mm 0.07 in1.8 mm
05:13 PM 53.4°F11.9°C 52.1°F11.2°C 94% 3.8 mph NE6.1 kmh NE 5.4 mph8.7 kmh 29.31 in992.6 mb 0.01 in0.3 mm 0.00 in0.0 mm 0.07 in1.8 mm
05:17 PM 53.2°F11.8°C 52.0°F11.1°C 94% 3.8 mph S6.1 kmh S 6.0 mph9.7 kmh 29.31 in992.6 mb 0.01 in0.3 mm 0.00 in0.0 mm 0.07 in1.8 mm
05:18 PM 53.2°F11.8°C 52.0°F11.1°C 94% 5.4 mph E8.7 kmh E 8.3 mph13.4 kmh 29.31 in992.6 mb 0.01 in0.3 mm 0.00 in0.0 mm 0.07 in1.8 mm
05:22 PM 53.2°F11.8°C 52.0°F11.1°C 94% 5.4 mph NE8.7 kmh NE 7.6 mph12.2 kmh 29.31 in992.6 mb 0.01 in0.3 mm 0.00 in0.0 mm 0.07 in1.8 mm
05:23 PM 53.2°F11.8°C 52.0°F11.1°C 94% 2.2 mph SE3.5 kmh SE 4.5 mph7.2 kmh 29.31 in992.6 mb 0.01 in0.3 mm 0.00 in0.0 mm 0.07 in1.8 mm
05:28 PM 53.2°F11.8°C 52.0°F11.1°C 94% 3.8 mph NNW6.1 kmh NNW 6.0 mph9.7 kmh 29.30 in992.2 mb 0.01 in0.3 mm 0.00 in0.0 mm 0.07 in1.8 mm
05:33 PM 53.2°F11.8°C 52.0°F11.1°C 94% 4.5 mph S7.2 kmh S 8.3 mph13.4 kmh 29.31 in992.6 mb 0.01 in0.3 mm 0.00 in0.0 mm 0.07 in1.8 mm
05:37 PM 53.2°F11.8°C 52.0°F11.1°C 94% 2.2 mph 3.5 kmh 3.8 mph6.1 kmh 29.30 in992.2 mb 0.01 in0.3 mm 0.00 in0.0 mm 0.07 in1.8 mm
05:38 PM 53.2°F11.8°C 52.0°F11.1°C 94% 3.1 mph 5.0 kmh 5.4 mph8.7 kmh 29.31 in992.6 mb 0.01 in0.3 mm 0.00 in0.0 mm 0.07 in1.8 mm
05:42 PM 53.1°F11.7°C 51.8°F11.0°C 94% 0.7 mph 1.1 kmh 2.2 mph3.5 kmh 29.31 in992.6 mb 0.02 in0.5 mm 0.18 in4.6 mm 0.08 in2.0 mm
05:43 PM 53.1°F11.7°C 51.8°F11.0°C 94% 0.7 mph E1.1 kmh E 3.8 mph6.1 kmh 29.31 in992.6 mb 0.02 in0.5 mm 0.00 in0.0 mm 0.08 in2.0 mm
05:48 PM 53.1°F11.7°C 51.8°F11.0°C 94% 3.1 mph NE5.0 kmh NE 5.4 mph8.7 kmh 29.30 in992.2 mb 0.02 in0.5 mm 0.00 in0.0 mm 0.08 in2.0 mm
05:53 PM 53.1°F11.7°C 51.8°F11.0°C 94% 1.6 mph NE2.6 kmh NE 3.8 mph6.1 kmh 29.30 in992.2 mb 0.01 in0.3 mm 0.00 in0.0 mm 0.08 in2.0 mm
05:57 PM 53.1°F11.7°C 51.8°F11.0°C 94% 2.2 mph NE3.5 kmh NE 5.4 mph8.7 kmh 29.30 in992.2 mb 0.01 in0.3 mm 0.00 in0.0 mm 0.08 in2.0 mm
05:58 PM 53.1°F11.7°C 51.8°F11.0°C 94% 1.6 mph NE2.6 kmh NE 3.1 mph5.0 kmh 29.30 in992.2 mb 0.01 in0.3 mm 0.00 in0.0 mm 0.08 in2.0 mm
06:02 PM 53.1°F11.7°C 51.8°F11.0°C 94% 0.7 mph S1.1 kmh S 3.1 mph5.0 kmh 29.30 in992.2 mb 0.01 in0.3 mm 0.00 in0.0 mm 0.08 in2.0 mm
06:03 PM 53.1°F11.7°C 51.8°F11.0°C 94% 1.6 mph 2.6 kmh 3.8 mph6.1 kmh 29.30 in992.2 mb 0.01 in0.3 mm 0.00 in0.0 mm 0.08 in2.0 mm
06:08 PM 53.1°F11.7°C 52.0°F11.1°C 95% 4.5 mph WNW7.2 kmh WNW 8.3 mph13.4 kmh 29.30 in992.2 mb 0.01 in0.3 mm 0.00 in0.0 mm 0.08 in2.0 mm
06:13 PM 53.1°F11.7°C 52.0°F11.1°C 95% 3.1 mph SE5.0 kmh SE 5.4 mph8.7 kmh 29.29 in991.9 mb 0.01 in0.3 mm 0.00 in0.0 mm 0.08 in2.0 mm
06:17 PM 53.1°F11.7°C 52.0°F11.1°C 95% 4.5 mph NE7.2 kmh NE 7.6 mph12.2 kmh 29.29 in991.9 mb 0.01 in0.3 mm 0.00 in0.0 mm 0.08 in2.0 mm
06:18 PM 53.1°F11.7°C 52.0°F11.1°C 95% 4.5 mph NE7.2 kmh NE 9.2 mph14.8 kmh 29.30 in992.2 mb 0.01 in0.3 mm 0.00 in0.0 mm 0.08 in2.0 mm
06:22 PM 53.1°F11.7°C 52.0°F11.1°C 95% 3.1 mph E5.0 kmh E 5.4 mph8.7 kmh 29.29 in991.9 mb 0.01 in0.3 mm 0.00 in0.0 mm 0.08 in2.0 mm
06:23 PM 53.1°F11.7°C 52.0°F11.1°C 95% 4.5 mph SE7.2 kmh SE 6.9 mph11.1 kmh 29.29 in991.9 mb 0.01 in0.3 mm 0.00 in0.0 mm 0.08 in2.0 mm
06:28 PM 53.1°F11.7°C 52.0°F11.1°C 95% 3.1 mph E5.0 kmh E 4.5 mph7.2 kmh 29.29 in991.9 mb 0.01 in0.3 mm 0.00 in0.0 mm 0.08 in2.0 mm
06:33 PM 53.1°F11.7°C 52.0°F11.1°C 95% 2.2 mph 3.5 kmh 4.5 mph7.2 kmh 29.29 in991.9 mb 0.01 in0.3 mm 0.00 in0.0 mm 0.08 in2.0 mm
06:37 PM 53.1°F11.7°C 52.0°F11.1°C 95% 4.5 mph E7.2 kmh E 6.9 mph11.1 kmh 29.29 in991.9 mb 0.01 in0.3 mm 0.00 in0.0 mm 0.08 in2.0 mm
06:38 PM 53.1°F11.7°C 52.0°F11.1°C 95% 3.1 mph NE5.0 kmh NE 6.0 mph9.7 kmh 29.28 in991.5 mb 0.01 in0.3 mm 0.00 in0.0 mm 0.08 in2.0 mm
06:42 PM 53.1°F11.7°C 52.0°F11.1°C 95% 3.8 mph E6.1 kmh E 4.5 mph7.2 kmh 29.30 in992.2 mb 0.01 in0.3 mm 0.00 in0.0 mm 0.08 in2.0 mm
06:43 PM 53.1°F11.7°C 52.0°F11.1°C 95% 2.2 mph NE3.5 kmh NE 6.9 mph11.1 kmh 29.29 in991.9 mb 0.00 in0.0 mm 0.00 in0.0 mm 0.08 in2.0 mm
06:48 PM 53.1°F11.7°C 52.0°F11.1°C 95% 3.8 mph NE6.1 kmh NE 6.9 mph11.1 kmh 29.29 in991.9 mb 0.01 in0.3 mm 0.14 in3.6 mm 0.09 in2.3 mm
06:53 PM 53.1°F11.7°C 52.0°F11.1°C 95% 0.7 mph NE1.1 kmh NE 3.1 mph5.0 kmh 29.29 in991.9 mb 0.01 in0.3 mm 0.00 in0.0 mm 0.09 in2.3 mm
06:57 PM 53.1°F11.7°C 52.0°F11.1°C 95% 2.2 mph NE3.5 kmh NE 4.5 mph7.2 kmh 29.28 in991.5 mb 0.01 in0.3 mm 0.00 in0.0 mm 0.09 in2.3 mm
06:58 PM 53.1°F11.7°C 52.0°F11.1°C 95% 2.2 mph S3.5 kmh S 4.5 mph7.2 kmh 29.28 in991.5 mb 0.01 in0.3 mm 0.00 in0.0 mm 0.09 in2.3 mm
07:02 PM 53.1°F11.7°C 52.0°F11.1°C 95% 3.1 mph NE5.0 kmh NE 6.0 mph9.7 kmh 29.28 in991.5 mb 0.01 in0.3 mm 0.00 in0.0 mm 0.09 in2.3 mm
07:03 PM 53.1°F11.7°C 52.0°F11.1°C 95% 3.1 mph NE5.0 kmh NE 6.9 mph11.1 kmh 29.28 in991.5 mb 0.02 in0.5 mm 0.72 in18.3 mm 0.11 in2.8 mm
07:08 PM 53.1°F11.7°C 52.0°F11.1°C 95% 2.2 mph 3.5 kmh 3.8 mph6.1 kmh 29.28 in991.5 mb 0.02 in0.5 mm 0.00 in0.0 mm 0.11 in2.8 mm
07:13 PM 53.1°F11.7°C 52.0°F11.1°C 95% 2.2 mph E3.5 kmh E 3.8 mph6.1 kmh 29.28 in991.5 mb 0.02 in0.5 mm 0.00 in0.0 mm 0.11 in2.8 mm
07:17 PM 53.1°F11.7°C 52.0°F11.1°C 95% 2.2 mph NE3.5 kmh NE 5.4 mph8.7 kmh 29.28 in991.5 mb 0.04 in1.0 mm 0.17 in4.3 mm 0.12 in3.0 mm
07:18 PM 53.1°F11.7°C 52.0°F11.1°C 95% 3.1 mph NE5.0 kmh NE 6.0 mph9.7 kmh 29.28 in991.5 mb 0.02 in0.5 mm 0.00 in0.0 mm 0.11 in2.8 mm
07:22 PM 53.1°F11.7°C 52.0°F11.1°C 95% 4.5 mph NE7.2 kmh NE 6.9 mph11.1 kmh 29.27 in991.2 mb 0.04 in1.0 mm 0.17 in4.3 mm 0.12 in3.0 mm
07:23 PM 53.1°F11.7°C 52.0°F11.1°C 95% 1.6 mph E2.6 kmh E 4.5 mph7.2 kmh 29.28 in991.5 mb 0.04 in1.0 mm 0.00 in0.0 mm 0.12 in3.0 mm
07:28 PM 53.1°F11.7°C 52.0°F11.1°C 95% 3.8 mph E6.1 kmh E 5.4 mph8.7 kmh 29.28 in991.5 mb 0.04 in1.0 mm 0.00 in0.0 mm 0.12 in3.0 mm
07:33 PM 53.1°F11.7°C 52.0°F11.1°C 95% 1.6 mph E2.6 kmh E 3.8 mph6.1 kmh 29.28 in991.5 mb 0.04 in1.0 mm 0.00 in0.0 mm 0.12 in3.0 mm
07:37 PM 53.1°F11.7°C 52.0°F11.1°C 95% 3.8 mph 6.1 kmh 6.9 mph11.1 kmh 29.28 in991.5 mb 0.05 in1.3 mm 0.18 in4.6 mm 0.13 in3.3 mm
07:38 PM 53.1°F11.7°C 52.0°F11.1°C 95% 4.5 mph SE7.2 kmh SE 6.9 mph11.1 kmh 29.27 in991.2 mb 0.05 in1.3 mm 0.00 in0.0 mm 0.13 in3.3 mm
07:42 PM 53.1°F11.7°C 52.0°F11.1°C 95% 5.4 mph NE8.7 kmh NE 10.7 mph17.2 kmh 29.28 in991.5 mb 0.05 in1.3 mm 0.00 in0.0 mm 0.13 in3.3 mm
07:43 PM 53.1°F11.7°C 52.2°F11.2°C 96% 4.5 mph NE7.2 kmh NE 9.2 mph14.8 kmh 29.27 in991.2 mb 0.05 in1.3 mm 0.00 in0.0 mm 0.13 in3.3 mm
07:48 PM 53.1°F11.7°C 52.2°F11.2°C 96% 3.1 mph E5.0 kmh E 7.6 mph12.2 kmh 29.27 in991.2 mb 0.04 in1.0 mm 0.00 in0.0 mm 0.13 in3.3 mm
07:53 PM 52.9°F11.6°C 52.0°F11.1°C 96% 3.1 mph SE5.0 kmh SE 6.0 mph9.7 kmh 29.28 in991.5 mb 0.04 in1.0 mm 0.00 in0.0 mm 0.13 in3.3 mm
07:57 PM 52.9°F11.6°C 52.0°F11.1°C 96% 3.1 mph SW5.0 kmh SW 6.9 mph11.1 kmh 29.27 in991.2 mb 0.05 in1.3 mm 0.18 in4.6 mm 0.14 in3.6 mm
07:58 PM 52.9°F11.6°C 52.0°F11.1°C 96% 2.2 mph E3.5 kmh E 6.9 mph11.1 kmh 29.27 in991.2 mb 0.04 in1.0 mm 0.00 in0.0 mm 0.13 in3.3 mm
08:02 PM 52.9°F11.6°C 52.0°F11.1°C 96% 5.4 mph E8.7 kmh E 8.3 mph13.4 kmh 29.27 in991.2 mb 0.05 in1.3 mm 0.01 in0.3 mm 0.14 in3.6 mm
08:03 PM 52.9°F11.6°C 52.0°F11.1°C 96% 0.7 mph NE1.1 kmh NE 3.1 mph5.0 kmh 29.27 in991.2 mb 0.04 in1.0 mm 0.00 in0.0 mm 0.14 in3.6 mm
08:08 PM 52.9°F11.6°C 52.0°F11.1°C 96% 2.2 mph 3.5 kmh 5.4 mph8.7 kmh 29.27 in991.2 mb 0.04 in1.0 mm 0.00 in0.0 mm 0.14 in3.6 mm
08:13 PM 52.9°F11.6°C 52.0°F11.1°C 96% 4.5 mph SE7.2 kmh SE 9.8 mph15.8 kmh 29.27 in991.2 mb 0.04 in1.0 mm 0.00 in0.0 mm 0.14 in3.6 mm
08:17 PM 52.9°F11.6°C 52.0°F11.1°C 96% 3.1 mph SE5.0 kmh SE 6.9 mph11.1 kmh 29.27 in991.2 mb 0.02 in0.5 mm 0.00 in0.0 mm 0.14 in3.6 mm
08:18 PM 52.9°F11.6°C 52.0°F11.1°C 96% 3.1 mph E5.0 kmh E 5.4 mph8.7 kmh 29.26 in990.9 mb 0.04 in1.0 mm 0.66 in16.8 mm 0.14 in3.6 mm
08:22 PM 52.9°F11.6°C 52.0°F11.1°C 96% 5.4 mph SE8.7 kmh SE 6.9 mph11.1 kmh 29.27 in991.2 mb 0.04 in1.0 mm 0.00 in0.0 mm 0.15 in3.8 mm
08:23 PM 52.9°F11.6°C 52.0°F11.1°C 96% 4.5 mph E7.2 kmh E 8.3 mph13.4 kmh 29.27 in991.2 mb 0.04 in1.0 mm 0.00 in0.0 mm 0.15 in3.8 mm
08:28 PM 52.9°F11.6°C 52.0°F11.1°C 96% 4.5 mph NE7.2 kmh NE 8.3 mph13.4 kmh 29.27 in991.2 mb 0.04 in1.0 mm 0.00 in0.0 mm 0.15 in3.8 mm
08:33 PM 52.9°F11.6°C 52.0°F11.1°C 96% 2.2 mph SE3.5 kmh SE 3.8 mph6.1 kmh 29.26 in990.9 mb 0.05 in1.3 mm 0.14 in3.6 mm 0.17 in4.3 mm
08:37 PM 52.9°F11.6°C 52.0°F11.1°C 96% 1.6 mph E2.6 kmh E 5.4 mph8.7 kmh 29.26 in990.9 mb 0.05 in1.3 mm 0.00 in0.0 mm 0.18 in4.6 mm
08:38 PM 52.9°F11.6°C 52.0°F11.1°C 96% 1.6 mph E2.6 kmh E 6.0 mph9.7 kmh 29.26 in990.9 mb 0.06 in1.5 mm 0.72 in18.3 mm 0.18 in4.6 mm
08:42 PM 52.9°F11.6°C 52.0°F11.1°C 96% 1.6 mph NE2.6 kmh NE 3.1 mph5.0 kmh 29.26 in990.9 mb 0.05 in1.3 mm 0.00 in0.0 mm 0.18 in4.6 mm
08:43 PM 52.9°F11.6°C 52.0°F11.1°C 96% 3.8 mph NE6.1 kmh NE 8.3 mph13.4 kmh 29.26 in990.9 mb 0.05 in1.3 mm 0.00 in0.0 mm 0.18 in4.6 mm
08:48 PM 52.7°F11.5°C 51.9°F11.1°C 96% 3.8 mph S6.1 kmh S 6.0 mph9.7 kmh 29.26 in990.9 mb 0.05 in1.3 mm 0.00 in0.0 mm 0.18 in4.6 mm
08:53 PM 52.7°F11.5°C 51.9°F11.1°C 96% 3.1 mph 5.0 kmh 6.0 mph9.7 kmh 29.25 in990.5 mb 0.06 in1.5 mm 0.14 in3.6 mm 0.18 in4.6 mm
08:57 PM 52.7°F11.5°C 52.1°F11.2°C 97% 3.8 mph E6.1 kmh E 7.6 mph12.2 kmh 29.26 in990.9 mb 0.06 in1.5 mm 0.00 in0.0 mm 0.19 in4.8 mm
08:58 PM 52.7°F11.5°C 52.1°F11.2°C 97% 2.2 mph SE3.5 kmh SE 5.4 mph8.7 kmh 29.25 in990.5 mb 0.06 in1.5 mm 0.00 in0.0 mm 0.18 in4.6 mm
09:02 PM 52.7°F11.5°C 52.1°F11.2°C 97% 3.8 mph NE6.1 kmh NE 7.6 mph12.2 kmh 29.25 in990.5 mb 0.06 in1.5 mm 0.00 in0.0 mm 0.19 in4.8 mm
09:03 PM 52.9°F11.6°C 52.3°F11.3°C 97% 2.2 mph SW3.5 kmh SW 3.8 mph6.1 kmh 29.25 in990.5 mb 0.06 in1.5 mm 0.00 in0.0 mm 0.19 in4.8 mm
09:08 PM 52.7°F11.5°C 52.1°F11.2°C 97% 2.2 mph S3.5 kmh S 4.5 mph7.2 kmh 29.25 in990.5 mb 0.07 in1.8 mm 0.14 in3.6 mm 0.20 in5.1 mm
09:13 PM 52.7°F11.5°C 52.1°F11.2°C 97% 2.2 mph E3.5 kmh E 5.4 mph8.7 kmh 29.24 in990.2 mb 0.07 in1.8 mm 0.00 in0.0 mm 0.20 in5.1 mm
09:17 PM 52.9°F11.6°C 52.3°F11.3°C 97% 3.1 mph NE5.0 kmh NE 6.9 mph11.1 kmh 29.24 in990.2 mb 0.08 in2.0 mm 0.18 in4.6 mm 0.21 in5.3 mm
09:18 PM 52.7°F11.5°C 52.1°F11.2°C 97% 4.5 mph E7.2 kmh E 7.6 mph12.2 kmh 29.24 in990.2 mb 0.08 in2.0 mm 0.00 in0.0 mm 0.21 in5.3 mm
09:22 PM 52.9°F11.6°C 52.3°F11.3°C 97% 2.2 mph NE3.5 kmh NE 4.5 mph7.2 kmh 29.24 in990.2 mb 0.08 in2.0 mm 0.00 in0.0 mm 0.21 in5.3 mm
09:23 PM 52.9°F11.6°C 52.3°F11.3°C 97% 2.2 mph S3.5 kmh S 7.6 mph12.2 kmh 29.24 in990.2 mb 0.07 in1.8 mm 0.00 in0.0 mm 0.21 in5.3 mm
09:28 PM 52.7°F11.5°C 52.1°F11.2°C 97% 3.8 mph E6.1 kmh E 5.4 mph8.7 kmh 29.24 in990.2 mb 0.07 in1.8 mm 0.00 in0.0 mm 0.21 in5.3 mm
09:33 PM 52.9°F11.6°C 52.3°F11.3°C 97% 3.8 mph S6.1 kmh S 8.3 mph13.4 kmh 29.23 in989.8 mb 0.06 in1.5 mm 0.00 in0.0 mm 0.21 in5.3 mm
09:37 PM 52.9°F11.6°C 52.3°F11.3°C 97% 2.2 mph E3.5 kmh E 3.8 mph6.1 kmh 29.23 in989.8 mb 0.05 in1.3 mm 0.00 in0.0 mm 0.21 in5.3 mm
09:38 PM 52.9°F11.6°C 52.3°F11.3°C 97% 3.1 mph WNW5.0 kmh WNW 4.5 mph7.2 kmh 29.24 in990.2 mb 0.06 in1.5 mm 0.72 in18.3 mm 0.21 in5.3 mm
09:42 PM 52.9°F11.6°C 52.3°F11.3°C 97% 1.6 mph E2.6 kmh E 3.8 mph6.1 kmh 29.24 in990.2 mb 0.05 in1.3 mm 0.00 in0.0 mm 0.21 in5.3 mm
09:43 PM 52.9°F11.6°C 52.3°F11.3°C 97% 5.4 mph SE8.7 kmh SE 8.3 mph13.4 kmh 29.23 in989.8 mb 0.06 in1.5 mm 0.72 in18.3 mm 0.22 in5.6 mm
09:48 PM 52.9°F11.6°C 52.3°F11.3°C 97% 6.9 mph SE11.1 kmh SE 9.2 mph14.8 kmh 29.23 in989.8 mb 0.06 in1.5 mm 0.00 in0.0 mm 0.22 in5.6 mm
09:53 PM 52.9°F11.6°C 52.3°F11.3°C 97% 2.2 mph NW3.5 kmh NW 3.8 mph6.1 kmh 29.23 in989.8 mb 0.05 in1.3 mm 0.00 in0.0 mm 0.22 in5.6 mm
09:57 PM 52.9°F11.6°C 52.3°F11.3°C 97% 3.1 mph NE5.0 kmh NE 5.4 mph8.7 kmh 29.23 in989.8 mb 0.04 in1.0 mm 0.00 in0.0 mm 0.22 in5.6 mm
09:58 PM 52.9°F11.6°C 52.3°F11.3°C 97% 2.2 mph SE3.5 kmh SE 6.0 mph9.7 kmh 29.23 in989.8 mb 0.05 in1.3 mm 0.72 in18.3 mm 0.22 in5.6 mm
10:02 PM 52.9°F11.6°C 52.3°F11.3°C 97% 2.2 mph S3.5 kmh S 3.8 mph6.1 kmh 29.23 in989.8 mb 0.05 in1.3 mm 0.00 in0.0 mm 0.24 in6.1 mm
10:03 PM 52.9°F11.6°C 52.3°F11.3°C 97% 1.6 mph 2.6 kmh 4.5 mph7.2 kmh 29.23 in989.8 mb 0.05 in1.3 mm 0.00 in0.0 mm 0.24 in6.1 mm
10:08 PM 52.9°F11.6°C 52.3°F11.3°C 97% 1.6 mph S2.6 kmh S 4.5 mph7.2 kmh 29.23 in989.8 mb 0.04 in1.0 mm 0.00 in0.0 mm 0.24 in6.1 mm
10:13 PM 52.9°F11.6°C 52.3°F11.3°C 97% 3.1 mph NE5.0 kmh NE 6.0 mph9.7 kmh 29.23 in989.8 mb 0.04 in1.0 mm 0.00 in0.0 mm 0.22 in5.6 mm
10:17 PM 52.9°F11.6°C 52.3°F11.3°C 97% 1.6 mph E2.6 kmh E 5.4 mph8.7 kmh 29.23 in989.8 mb 0.02 in0.5 mm 0.00 in0.0 mm 0.22 in5.6 mm
10:18 PM 52.9°F11.6°C 52.3°F11.3°C 97% 1.6 mph SW2.6 kmh SW 3.1 mph5.0 kmh 29.23 in989.8 mb 0.04 in1.0 mm 0.66 in16.8 mm 0.22 in5.6 mm
10:22 PM 52.9°F11.6°C 52.3°F11.3°C 97% 3.8 mph NE6.1 kmh NE 6.0 mph9.7 kmh 29.23 in989.8 mb 0.02 in0.5 mm 0.00 in0.0 mm 0.22 in5.6 mm
10:23 PM 53.1°F11.7°C 52.4°F11.3°C 97% 2.2 mph S3.5 kmh S 3.8 mph6.1 kmh 29.23 in989.8 mb 0.02 in0.5 mm 0.00 in0.0 mm 0.22 in5.6 mm
10:28 PM 53.1°F11.7°C 52.4°F11.3°C 97% 1.6 mph S2.6 kmh S 3.1 mph5.0 kmh 29.22 in989.5 mb 0.04 in1.0 mm 0.13 in3.3 mm 0.24 in6.1 mm
10:33 PM 53.1°F11.7°C 52.4°F11.3°C 97% 3.1 mph E5.0 kmh E 8.3 mph13.4 kmh 29.22 in989.5 mb 0.05 in1.3 mm 0.14 in3.6 mm 0.25 in6.4 mm
10:37 PM 53.1°F11.7°C 52.4°F11.3°C 97% 6.0 mph NE9.7 kmh NE 8.3 mph13.4 kmh 29.22 in989.5 mb 0.05 in1.3 mm 0.00 in0.0 mm 0.25 in6.4 mm
10:38 PM 53.1°F11.7°C 52.4°F11.3°C 97% 2.2 mph SE3.5 kmh SE 3.8 mph6.1 kmh 29.22 in989.5 mb 0.05 in1.3 mm 0.00 in0.0 mm 0.25 in6.4 mm
10:42 PM 53.1°F11.7°C 52.4°F11.3°C 97% 3.8 mph SE6.1 kmh SE 5.4 mph8.7 kmh 29.22 in989.5 mb 0.05 in1.3 mm 0.00 in0.0 mm 0.25 in6.4 mm
10:43 PM 53.1°F11.7°C 52.4°F11.3°C 97% 3.1 mph S5.0 kmh S 6.0 mph9.7 kmh 29.23 in989.8 mb 0.04 in1.0 mm 0.00 in0.0 mm 0.25 in6.4 mm
10:48 PM 53.1°F11.7°C 52.4°F11.3°C 97% 3.1 mph E5.0 kmh E 5.4 mph8.7 kmh 29.22 in989.5 mb 0.05 in1.3 mm 0.14 in3.6 mm 0.25 in6.4 mm
10:53 PM 53.1°F11.7°C 52.4°F11.3°C 97% 3.1 mph SE5.0 kmh SE 5.4 mph8.7 kmh 29.22 in989.5 mb 0.05 in1.3 mm 0.00 in0.0 mm 0.25 in6.4 mm
10:57 PM 53.1°F11.7°C 52.4°F11.3°C 97% 2.2 mph S3.5 kmh S 6.9 mph11.1 kmh 29.22 in989.5 mb 0.05 in1.3 mm 0.00 in0.0 mm 0.25 in6.4 mm
10:58 PM 53.1°F11.7°C 52.4°F11.3°C 97% 2.2 mph E3.5 kmh E 5.4 mph8.7 kmh 29.22 in989.5 mb 0.05 in1.3 mm 0.00 in0.0 mm 0.25 in6.4 mm
11:02 PM 53.1°F11.7°C 52.4°F11.3°C 97% 2.2 mph NE3.5 kmh NE 3.8 mph6.1 kmh 29.22 in989.5 mb 0.05 in1.3 mm 0.00 in0.0 mm 0.25 in6.4 mm
11:03 PM 53.1°F11.7°C 52.4°F11.3°C 97% 3.1 mph NE5.0 kmh NE 6.9 mph11.1 kmh 29.22 in989.5 mb 0.04 in1.0 mm 0.00 in0.0 mm 0.25 in6.4 mm
11:08 PM 53.1°F11.7°C 52.4°F11.3°C 97% 1.6 mph E2.6 kmh E 3.1 mph5.0 kmh 29.22 in989.5 mb 0.04 in1.0 mm 0.00 in0.0 mm 0.25 in6.4 mm
11:13 PM 53.1°F11.7°C 52.4°F11.3°C 97% 2.2 mph 3.5 kmh 4.5 mph7.2 kmh 29.21 in989.2 mb 0.04 in1.0 mm 0.00 in0.0 mm 0.25 in6.4 mm
11:17 PM 53.1°F11.7°C 52.4°F11.3°C 97% 2.2 mph NE3.5 kmh NE 3.8 mph6.1 kmh 29.21 in989.2 mb 0.04 in1.0 mm 0.00 in0.0 mm 0.25 in6.4 mm
11:18 PM 53.1°F11.7°C 52.4°F11.3°C 97% 2.2 mph SE3.5 kmh SE 4.5 mph7.2 kmh 29.21 in989.2 mb 0.04 in1.0 mm 0.00 in0.0 mm 0.25 in6.4 mm
11:22 PM 53.1°F11.7°C 52.4°F11.3°C 97% 3.8 mph NE6.1 kmh NE 6.9 mph11.1 kmh 29.21 in989.2 mb 0.04 in1.0 mm 0.00 in0.0 mm 0.25 in6.4 mm
11:23 PM 53.1°F11.7°C 52.4°F11.3°C 97% 3.1 mph SE5.0 kmh SE 6.0 mph9.7 kmh 29.21 in989.2 mb 0.04 in1.0 mm 0.00 in0.0 mm 0.25 in6.4 mm
11:28 PM 53.1°F11.7°C 52.4°F11.3°C 97% 2.2 mph NE3.5 kmh NE 4.5 mph7.2 kmh 29.21 in989.2 mb 0.02 in0.5 mm 0.00 in0.0 mm 0.25 in6.4 mm
11:33 PM 53.1°F11.7°C 52.4°F11.3°C 97% 4.5 mph E7.2 kmh E 8.3 mph13.4 kmh 29.21 in989.2 mb 0.01 in0.3 mm 0.00 in0.0 mm 0.25 in6.4 mm
11:37 PM 53.1°F11.7°C 52.6°F11.4°C 98% 2.2 mph SE3.5 kmh SE 4.5 mph7.2 kmh 29.21 in989.2 mb 0.01 in0.3 mm 0.00 in0.0 mm 0.25 in6.4 mm
11:38 PM 53.1°F11.7°C 52.6°F11.4°C 98% 3.1 mph NE5.0 kmh NE 6.9 mph11.1 kmh 29.21 in989.2 mb 0.01 in0.3 mm 0.00 in0.0 mm 0.25 in6.4 mm
11:42 PM 53.1°F11.7°C 52.6°F11.4°C 98% 4.5 mph SE7.2 kmh SE 6.0 mph9.7 kmh 29.21 in989.2 mb 0.01 in0.3 mm 0.00 in0.0 mm 0.25 in6.4 mm
11:43 PM 53.1°F11.7°C 52.6°F11.4°C 98% 0.7 mph 1.1 kmh 3.1 mph5.0 kmh 29.21 in989.2 mb 0.01 in0.3 mm 0.00 in0.0 mm 0.25 in6.4 mm
11:48 PM 53.1°F11.7°C 52.6°F11.4°C 98% 2.2 mph NE3.5 kmh NE 3.8 mph6.1 kmh 29.21 in989.2 mb 0.00 in0.0 mm 0.00 in0.0 mm 0.24 in6.1 mm
11:53 PM 53.1°F11.7°C 52.6°F11.4°C 98% 0.7 mph S1.1 kmh S 2.2 mph3.5 kmh 29.21 in989.2 mb 0.00 in0.0 mm 0.00 in0.0 mm 0.24 in6.1 mm
11:57 PM 53.2°F11.8°C 52.8°F11.6°C 98% 2.2 mph 3.5 kmh 6.0 mph9.7 kmh 29.21 in989.2 mb 0.00 in0.0 mm 0.00 in0.0 mm 0.24 in6.1 mm
11:58 PM 53.1°F11.7°C 52.6°F11.4°C 98% 3.1 mph SE5.0 kmh SE 6.0 mph9.7 kmh 29.20 in988.8 mb 0.00 in0.0 mm 0.00 in0.0 mm 0.24 in6.1 mm